UAL164 KEWR-OMDB
Flight info
| Callsign | UAL164 |
|---|---|
| Flight time | N/A |
| Altitude | 33000 |
| Route | MERIT DCT HFD DCT PUT DCT BOS DCT ALLEX DCT JOOPY/M084F350 DCT 49N050W 51N040W 52N030W 49N020W 48N015W DCT ETIKI DCT REGHI/N0480F350 DCT ADSET/N0474F370 DCT LEMKA DCT BEBIX/N0472F380 DCT VALKU/N0474F370 DCT TIS DCT MEBAK DCT GIPNO DCT BALSI DCT OBIGO DCT ROBEX DCT LAPRI/N0473F380 DCT MOGBO/N0475F370 DCT UPDIN/N0471F390 DCT ARBUM DCT BELIX DCT SALUN N705 MMA L613 KIVIL N710 TAKRI M720 FYM M872 WEJ/N0484F410 L604 GAS L308 DAROR P559 NALPO/N0491F350 P559 VUTEB |
| Aircraft | B772/H-SDE2E3FGHIJ5LORVWXY/LB1D1 |
Departure
| Time | 2026-04-25 16:13 |
|---|---|
| Airport | Newark Liberty International Airport (KEWR) |
Arrival
| Time | N/A |
|---|---|
| Airport | Dubai International Airport (OMDB) |
| Time | Latitude | Longitude | Altitude | Speed | Heading |
|---|---|---|---|---|---|
| 2026-04-25 14:34 | 40.69749 | -74.17805 | 26 ft | 0 kts | 245° |
| 2026-04-25 14:34 | 40.69747 | -74.17810 | 26 ft | 0 kts | 245° |
| 2026-04-25 15:57 | 40.69748 | -74.17807 | 26 ft | 3 kts | 245° |
| 2026-04-25 15:57 | 40.69759 | -74.17775 | 25 ft | 4 kts | 244° |
| 2026-04-25 15:58 | 40.69773 | -74.17745 | 25 ft | 4 kts | 232° |
| 2026-04-25 15:58 | 40.69791 | -74.17719 | 24 ft | 4 kts | 220° |
| 2026-04-25 15:58 | 40.69812 | -74.17697 | 25 ft | 4 kts | 220° |
| 2026-04-25 15:58 | 40.69830 | -74.17672 | 24 ft | 4 kts | 244° |
| 2026-04-25 15:59 | 40.69839 | -74.17640 | 25 ft | 4 kts | 243° |
| 2026-04-25 15:59 | 40.69850 | -74.17620 | 24 ft | 4 kts | 215° |
| 2026-04-25 15:59 | 40.69870 | -74.17610 | 25 ft | 4 kts | 145° |
| 2026-04-25 15:59 | 40.69875 | -74.17625 | 24 ft | 4 kts | 48° |
| 2026-04-25 16:00 | 40.69860 | -74.17643 | 25 ft | 4 kts | 40° |
| 2026-04-25 16:00 | 40.69853 | -74.17651 | 25 ft | 3 kts | 40° |
| 2026-04-25 16:00 | 40.69850 | -74.17655 | 24 ft | 0 kts | 40° |
| 2026-04-25 16:02 | 40.69877 | -74.17624 | 26 ft | 11 kts | 40° |
| 2026-04-25 16:02 | 40.69919 | -74.17538 | 26 ft | 11 kts | 56° |
| 2026-04-25 16:02 | 40.69954 | -74.17450 | 26 ft | 11 kts | 98° |
| 2026-04-25 16:03 | 40.69933 | -74.17348 | 26 ft | 13 kts | 106° |
| 2026-04-25 16:03 | 40.69867 | -74.17230 | 26 ft | 19 kts | 133° |
| 2026-04-25 16:03 | 40.69755 | -74.17101 | 26 ft | 24 kts | 145° |
| 2026-04-25 16:03 | 40.69594 | -74.17004 | 31 ft | 26 kts | 165° |
| 2026-04-25 16:04 | 40.69414 | -74.16969 | 26 ft | 26 kts | 180° |
| 2026-04-25 16:04 | 40.69238 | -74.17024 | 29 ft | 26 kts | 205° |
| 2026-04-25 16:04 | 40.69074 | -74.17129 | 28 ft | 26 kts | 206° |
| 2026-04-25 16:04 | 40.68909 | -74.17233 | 27 ft | 26 kts | 205° |
| 2026-04-25 16:05 | 40.68762 | -74.17326 | 27 ft | 16 kts | 206° |
| 2026-04-25 16:05 | 40.68671 | -74.17385 | 27 ft | 16 kts | 206° |
| 2026-04-25 16:05 | 40.68476 | -74.17509 | 27 ft | 16 kts | 205° |
| 2026-04-25 16:06 | 40.68411 | -74.17549 | 27 ft | 16 kts | 205° |
| 2026-04-25 16:06 | 40.68314 | -74.17612 | 26 ft | 16 kts | 206° |
| 2026-04-25 16:06 | 40.68217 | -74.17675 | 28 ft | 16 kts | 206° |
| 2026-04-25 16:06 | 40.68120 | -74.17737 | 32 ft | 16 kts | 206° |
| 2026-04-25 16:07 | 40.68022 | -74.17799 | 29 ft | 16 kts | 205° |
| 2026-04-25 16:07 | 40.67967 | -74.17833 | 26 ft | 10 kts | 205° |
| 2026-04-25 16:07 | 40.67946 | -74.17846 | 26 ft | 0 kts | 205° |
| 2026-04-25 16:08 | 40.67926 | -74.17858 | 27 ft | 8 kts | 205° |
| 2026-04-25 16:08 | 40.67875 | -74.17891 | 26 ft | 8 kts | 208° |
| 2026-04-25 16:08 | 40.67825 | -74.17924 | 27 ft | 8 kts | 206° |
| 2026-04-25 16:09 | 40.67774 | -74.17956 | 26 ft | 8 kts | 205° |
| 2026-04-25 16:09 | 40.67725 | -74.17987 | 26 ft | 4 kts | 205° |
| 2026-04-25 16:09 | 40.67701 | -74.18002 | 26 ft | 4 kts | 205° |
| 2026-04-25 16:09 | 40.67677 | -74.18016 | 27 ft | 4 kts | 205° |
| 2026-04-25 16:10 | 40.67653 | -74.18031 | 27 ft | 4 kts | 205° |
| 2026-04-25 16:10 | 40.67625 | -74.18042 | 27 ft | 7 kts | 184° |
| 2026-04-25 16:10 | 40.67612 | -74.18039 | 27 ft | 0 kts | 168° |
| 2026-04-25 16:11 | 40.67588 | -74.18007 | 27 ft | 12 kts | 130° |
| 2026-04-25 16:11 | 40.67585 | -74.17917 | 27 ft | 8 kts | 31° |
| 2026-04-25 16:12 | 40.67695 | -74.17847 | 30 ft | 34 kts | 26° |
| 2026-04-25 16:12 | 40.68120 | -74.17571 | 26 ft | 102 kts | 26° |
| 2026-04-25 16:12 | 40.68933 | -74.17065 | 27 ft | 159 kts | 28° |
| 2026-04-25 16:12 | 40.69638 | -74.16539 | 152 ft | 177 kts | 31° |
| 2026-04-25 16:13 | 40.71196 | -74.15501 | 851 ft | 195 kts | 31° |
| 2026-04-25 16:13 | 40.72407 | -74.14669 | 1682 ft | 195 kts | 32° |
| 2026-04-25 16:13 | 40.73649 | -74.13836 | 2008 ft | 212 kts | 32° |
| 2026-04-25 16:13 | 40.75037 | -74.12914 | 2249 ft | 226 kts | 32° |
| 2026-04-25 16:14 | 40.76474 | -74.11958 | 2418 ft | 244 kts | 32° |
| 2026-04-25 16:14 | 40.78032 | -74.10900 | 2790 ft | 255 kts | 32° |
| 2026-04-25 16:14 | 40.79631 | -74.09811 | 3277 ft | 262 kts | 32° |
| 2026-04-25 16:14 | 40.81261 | -74.08680 | 3741 ft | 268 kts | 31° |
| 2026-04-25 16:15 | 40.82916 | -74.07496 | 4255 ft | 272 kts | 32° |
| 2026-04-25 16:15 | 40.84583 | -74.06270 | 4743 ft | 277 kts | 32° |
| 2026-04-25 16:15 | 40.86252 | -74.05008 | 5033 ft | 274 kts | 31° |
| 2026-04-25 16:15 | 40.87863 | -74.03763 | 5029 ft | 279 kts | 32° |
| 2026-04-25 16:16 | 40.89552 | -74.02465 | 5025 ft | 281 kts | 32° |
| 2026-04-25 16:16 | 40.91235 | -74.01172 | 5029 ft | 280 kts | 32° |
| 2026-04-25 16:16 | 40.92922 | -73.99878 | 5012 ft | 278 kts | 31° |
| 2026-04-25 16:16 | 40.94588 | -73.98588 | 4997 ft | 277 kts | 32° |
| 2026-04-25 16:17 | 40.96241 | -73.97308 | 5006 ft | 274 kts | 32° |
| 2026-04-25 16:17 | 40.97891 | -73.96029 | 5004 ft | 274 kts | 32° |
| 2026-04-25 16:17 | 40.99545 | -73.94749 | 5013 ft | 277 kts | 32° |
| 2026-04-25 16:17 | 41.01212 | -73.93448 | 5002 ft | 279 kts | 32° |
| 2026-04-25 16:18 | 41.02889 | -73.92140 | 4998 ft | 279 kts | 31° |
| 2026-04-25 16:18 | 41.03425 | -73.91721 | 5003 ft | 278 kts | 32° |
| 2026-04-25 16:18 | 41.06041 | -73.89288 | 5319 ft | 278 kts | 54° |
| 2026-04-25 16:18 | 41.06864 | -73.87003 | 5789 ft | 278 kts | 81° |
| 2026-04-25 16:19 | 41.06820 | -73.84451 | 6217 ft | 280 kts | 108° |
| 2026-04-25 16:19 | 41.05988 | -73.82119 | 6600 ft | 284 kts | 123° |
| 2026-04-25 16:19 | 41.04880 | -73.79918 | 6995 ft | 289 kts | 126° |
| 2026-04-25 16:20 | 41.02518 | -73.75553 | 7968 ft | 293 kts | 127° |
| 2026-04-25 16:20 | 41.01314 | -73.73364 | 8454 ft | 295 kts | 127° |
| 2026-04-25 16:20 | 40.98856 | -73.68936 | 9392 ft | 300 kts | 127° |
| 2026-04-25 16:21 | 40.97615 | -73.66715 | 9849 ft | 302 kts | 127° |
| 2026-04-25 16:21 | 40.96368 | -73.64493 | 10040 ft | 307 kts | 127° |
| 2026-04-25 16:21 | 40.95085 | -73.62218 | 10014 ft | 307 kts | 127° |
| 2026-04-25 16:21 | 40.93796 | -73.59937 | 10025 ft | 317 kts | 127° |
| 2026-04-25 16:22 | 40.92443 | -73.57546 | 10040 ft | 334 kts | 127° |
| 2026-04-25 16:22 | 40.91014 | -73.55026 | 10042 ft | 353 kts | 127° |
| 2026-04-25 16:22 | 40.89490 | -73.52339 | 10024 ft | 375 kts | 127° |
| 2026-04-25 16:22 | 40.87950 | -73.49499 | 10010 ft | 383 kts | 121° |
| 2026-04-25 16:23 | 40.86836 | -73.46302 | 10005 ft | 385 kts | 107° |
| 2026-04-25 16:23 | 40.86314 | -73.42829 | 10013 ft | 385 kts | 93° |
| 2026-04-25 16:23 | 40.86403 | -73.39316 | 10042 ft | 384 kts | 79° |
| 2026-04-25 16:23 | 40.87135 | -73.35963 | 10523 ft | 384 kts | 62° |
| 2026-04-25 16:24 | 40.88657 | -73.33145 | 11138 ft | 382 kts | 40° |
| 2026-04-25 16:24 | 40.90826 | -73.31137 | 11715 ft | 382 kts | 22° |
| 2026-04-25 16:24 | 40.93323 | -73.30003 | 12280 ft | 380 kts | 12° |
| 2026-04-25 16:24 | 40.95900 | -73.29101 | 12940 ft | 382 kts | 11° |
| 2026-04-25 16:25 | 40.98478 | -73.28201 | 13766 ft | 380 kts | 11° |
| 2026-04-25 16:25 | 41.00164 | -73.27609 | 14276 ft | 380 kts | 11° |
| 2026-04-25 16:25 | 41.03618 | -73.26387 | 14881 ft | 388 kts | 11° |
| 2026-04-25 16:25 | 41.06246 | -73.25446 | 15297 ft | 394 kts | 11° |
| 2026-04-25 16:26 | 41.08901 | -73.24485 | 15774 ft | 398 kts | 11° |
| 2026-04-25 16:26 | 41.11547 | -73.23520 | 16269 ft | 402 kts | 10° |
| 2026-04-25 16:26 | 41.14300 | -73.22512 | 16760 ft | 406 kts | 10° |
| 2026-04-25 16:26 | 41.17034 | -73.21508 | 17227 ft | 411 kts | 10° |
| 2026-04-25 16:27 | 41.17421 | -73.21365 | 17291 ft | 411 kts | 10° |
| 2026-04-25 16:27 | 41.20239 | -73.20330 | 17740 ft | 416 kts | 9° |
| 2026-04-25 16:27 | 41.23046 | -73.19298 | 18152 ft | 421 kts | 9° |
| 2026-04-25 16:27 | 41.25854 | -73.18263 | 18562 ft | 426 kts | 9° |
| 2026-04-25 16:28 | 41.28719 | -73.17204 | 18999 ft | 427 kts | 9° |
| 2026-04-25 16:28 | 41.31577 | -73.16148 | 19505 ft | 426 kts | 9° |
| 2026-04-25 16:28 | 41.34436 | -73.15081 | 19976 ft | 424 kts | 11° |
| 2026-04-25 16:28 | 41.37186 | -73.13474 | 20239 ft | 442 kts | 27° |
| 2026-04-25 16:29 | 41.39541 | -73.10738 | 20577 ft | 459 kts | 45° |
| 2026-04-25 16:29 | 41.41290 | -73.07152 | 20946 ft | 464 kts | 56° |
| 2026-04-25 16:29 | 41.42871 | -73.03360 | 21233 ft | 468 kts | 56° |
| 2026-04-25 16:29 | 41.44490 | -72.99569 | 21591 ft | 471 kts | 55° |
| 2026-04-25 16:30 | 41.46129 | -72.95789 | 22029 ft | 471 kts | 54° |
| 2026-04-25 16:30 | 41.47781 | -72.92014 | 22492 ft | 471 kts | 54° |
| 2026-04-25 16:30 | 41.49441 | -72.88233 | 22935 ft | 473 kts | 53° |
| 2026-04-25 16:30 | 41.51086 | -72.84490 | 23303 ft | 475 kts | 53° |
| 2026-04-25 16:31 | 41.52787 | -72.80621 | 23657 ft | 478 kts | 53° |
| 2026-04-25 16:31 | 41.54449 | -72.76831 | 23980 ft | 480 kts | 53° |
| 2026-04-25 16:31 | 41.56144 | -72.72958 | 24314 ft | 482 kts | 53° |
| 2026-04-25 16:31 | 41.57839 | -72.69079 | 24654 ft | 484 kts | 53° |
| 2026-04-25 16:32 | 41.59436 | -72.65418 | 24953 ft | 485 kts | 53° |
| 2026-04-25 16:32 | 41.61139 | -72.61512 | 25260 ft | 487 kts | 53° |
| 2026-04-25 16:32 | 41.62854 | -72.57573 | 25531 ft | 491 kts | 53° |
| 2026-04-25 16:32 | 41.64558 | -72.53662 | 25756 ft | 494 kts | 53° |
| 2026-04-25 16:33 | 41.66314 | -72.49714 | 26075 ft | 494 kts | 52° |
| 2026-04-25 16:33 | 41.68098 | -72.45768 | 26395 ft | 495 kts | 52° |
| 2026-04-25 16:33 | 41.69909 | -72.41778 | 26696 ft | 497 kts | 52° |
| 2026-04-25 16:33 | 41.71694 | -72.37837 | 26984 ft | 499 kts | 52° |
| 2026-04-25 16:34 | 41.73490 | -72.33859 | 27271 ft | 501 kts | 52° |
| 2026-04-25 16:34 | 41.75294 | -72.29847 | 27571 ft | 502 kts | 52° |
| 2026-04-25 16:34 | 41.77096 | -72.25826 | 27854 ft | 504 kts | 52° |
| 2026-04-25 16:34 | 41.78904 | -72.21784 | 28127 ft | 506 kts | 51° |
| 2026-04-25 16:35 | 41.80714 | -72.17728 | 28367 ft | 508 kts | 51° |
| 2026-04-25 16:35 | 41.82527 | -72.13660 | 28645 ft | 510 kts | 51° |
| 2026-04-25 16:35 | 41.84326 | -72.09620 | 28851 ft | 512 kts | 51° |
| 2026-04-25 16:35 | 41.86150 | -72.05519 | 29064 ft | 514 kts | 51° |
| 2026-04-25 16:36 | 41.87991 | -72.01378 | 29093 ft | 516 kts | 51° |
| 2026-04-25 16:36 | 41.91664 | -71.93080 | 29125 ft | 513 kts | 51° |
| 2026-04-25 16:37 | 41.95317 | -71.84820 | 29140 ft | 514 kts | 51° |
| 2026-04-25 16:37 | 41.99054 | -71.76729 | 29139 ft | 510 kts | 49° |
| 2026-04-25 16:38 | 42.02920 | -71.68736 | 29144 ft | 510 kts | 48° |
| 2026-04-25 16:38 | 42.06785 | -71.60684 | 29135 ft | 512 kts | 49° |
| 2026-04-25 16:39 | 42.10623 | -71.52579 | 29142 ft | 511 kts | 49° |
| 2026-04-25 16:39 | 42.14432 | -71.44492 | 29141 ft | 509 kts | 49° |
| 2026-04-25 16:40 | 42.18200 | -71.36479 | 29142 ft | 508 kts | 49° |
| 2026-04-25 16:40 | 42.21990 | -71.28404 | 29143 ft | 508 kts | 49° |
| 2026-04-25 16:41 | 42.25768 | -71.20335 | 29153 ft | 509 kts | 49° |
| 2026-04-25 16:41 | 42.31423 | -71.08210 | 29170 ft | 511 kts | 49° |
| 2026-04-25 16:42 | 42.35055 | -70.99906 | 29132 ft | 519 kts | 56° |
| 2026-04-25 16:42 | 42.37652 | -70.90694 | 29154 ft | 531 kts | 66° |
| 2026-04-25 16:43 | 42.39690 | -70.80987 | 29171 ft | 531 kts | 66° |
| 2026-04-25 16:43 | 42.41688 | -70.71481 | 29233 ft | 534 kts | 66° |
| 2026-04-25 16:44 | 42.42721 | -70.66640 | 29490 ft | 535 kts | 66° |
| 2026-04-25 16:44 | 42.43753 | -70.61822 | 29729 ft | 535 kts | 66° |
| 2026-04-25 16:44 | 42.44796 | -70.56968 | 29993 ft | 535 kts | 66° |
| 2026-04-25 16:44 | 42.45840 | -70.52106 | 30268 ft | 535 kts | 65° |
| 2026-04-25 16:45 | 42.46863 | -70.47324 | 30509 ft | 535 kts | 65° |
| 2026-04-25 16:45 | 42.47912 | -70.42412 | 30809 ft | 533 kts | 65° |
| 2026-04-25 16:45 | 42.48922 | -70.37664 | 31098 ft | 531 kts | 65° |
| 2026-04-25 16:45 | 42.49941 | -70.32865 | 31393 ft | 530 kts | 65° |
| 2026-04-25 16:46 | 42.50959 | -70.28062 | 31650 ft | 529 kts | 65° |
| 2026-04-25 16:46 | 42.51972 | -70.23270 | 31887 ft | 528 kts | 65° |
| 2026-04-25 16:46 | 42.52981 | -70.18486 | 32201 ft | 527 kts | 65° |
| 2026-04-25 16:46 | 42.53323 | -70.16859 | 32307 ft | 526 kts | 65° |
| 2026-04-25 16:47 | 42.54978 | -70.08970 | 32847 ft | 522 kts | 65° |
| 2026-04-25 16:47 | 42.55969 | -70.04237 | 33074 ft | 522 kts | 65° |
| 2026-04-25 16:47 | 42.57960 | -69.94725 | 33130 ft | 525 kts | 65° |
| 2026-04-25 16:48 | 42.59924 | -69.85264 | 33157 ft | 520 kts | 65° |
| 2026-04-25 16:48 | 42.61869 | -69.75834 | 33144 ft | 517 kts | 65° |
| 2026-04-25 16:49 | 42.63478 | -69.68029 | 33136 ft | 515 kts | 65° |
| 2026-04-25 16:49 | 42.65399 | -69.58667 | 33138 ft | 513 kts | 65° |
| 2026-04-25 16:50 | 42.67311 | -69.49314 | 33162 ft | 513 kts | 64° |
| 2026-04-25 16:50 | 42.69210 | -69.39981 | 33141 ft | 514 kts | 64° |
| 2026-04-25 16:51 | 42.71097 | -69.30653 | 33154 ft | 515 kts | 64° |
| 2026-04-25 16:51 | 42.72673 | -69.22829 | 33136 ft | 517 kts | 64° |
| 2026-04-25 16:52 | 42.74887 | -69.11787 | 33124 ft | 518 kts | 64° |
| 2026-04-25 16:52 | 42.76778 | -69.02303 | 33131 ft | 519 kts | 64° |
| 2026-04-25 16:53 | 42.79559 | -68.88270 | 33122 ft | 520 kts | 64° |
| 2026-04-25 16:54 | 42.81438 | -68.78743 | 33126 ft | 521 kts | 64° |
| 2026-04-25 16:54 | 42.83316 | -68.69167 | 33119 ft | 521 kts | 64° |
| 2026-04-25 16:55 | 42.85171 | -68.59656 | 33112 ft | 521 kts | 64° |
| 2026-04-25 16:55 | 42.87026 | -68.50103 | 33149 ft | 521 kts | 64° |
| 2026-04-25 16:56 | 42.88873 | -68.40548 | 33114 ft | 521 kts | 64° |
| 2026-04-25 16:56 | 42.90713 | -68.30983 | 33119 ft | 520 kts | 64° |
| 2026-04-25 16:57 | 42.92531 | -68.21484 | 33104 ft | 520 kts | 64° |
| 2026-04-25 16:57 | 42.94447 | -68.11421 | 33137 ft | 519 kts | 64° |
| 2026-04-25 16:58 | 42.96166 | -68.02350 | 33107 ft | 519 kts | 65° |
| 2026-04-25 16:58 | 42.97958 | -67.92849 | 33101 ft | 519 kts | 65° |
| 2026-04-25 16:59 | 42.99746 | -67.83315 | 33141 ft | 518 kts | 65° |
| 2026-04-25 16:59 | 43.01528 | -67.73772 | 33099 ft | 518 kts | 65° |
| 2026-04-25 17:00 | 43.03305 | -67.64212 | 33094 ft | 518 kts | 65° |
| 2026-04-25 17:00 | 43.05072 | -67.54654 | 33096 ft | 518 kts | 65° |
| 2026-04-25 17:01 | 43.06821 | -67.45142 | 33094 ft | 518 kts | 65° |
| 2026-04-25 17:01 | 43.08575 | -67.35554 | 33090 ft | 519 kts | 65° |
| 2026-04-25 17:02 | 43.10309 | -67.26026 | 33093 ft | 519 kts | 66° |
| 2026-04-25 17:02 | 43.12049 | -67.16414 | 33084 ft | 519 kts | 67° |
| 2026-04-25 17:03 | 43.13780 | -67.06814 | 33084 ft | 518 kts | 67° |
| 2026-04-25 17:03 | 43.15939 | -66.97534 | 33082 ft | 504 kts | 57° |
| 2026-04-25 17:04 | 43.19066 | -66.89093 | 33105 ft | 495 kts | 53° |
| 2026-04-25 17:04 | 43.22297 | -66.80762 | 33066 ft | 494 kts | 54° |
| 2026-04-25 17:05 | 43.25488 | -66.72419 | 33064 ft | 494 kts | 54° |
| 2026-04-25 17:05 | 43.30224 | -66.59889 | 33057 ft | 494 kts | 55° |
| 2026-04-25 17:06 | 43.33379 | -66.51496 | 33056 ft | 494 kts | 56° |
| 2026-04-25 17:06 | 43.36528 | -66.43091 | 33048 ft | 494 kts | 56° |
| 2026-04-25 17:07 | 43.39652 | -66.34735 | 33039 ft | 494 kts | 56° |
| 2026-04-25 17:07 | 43.42788 | -66.26324 | 33039 ft | 493 kts | 56° |
| 2026-04-25 17:08 | 43.45912 | -66.17916 | 33042 ft | 494 kts | 57° |
| 2026-04-25 17:08 | 43.49035 | -66.09501 | 33033 ft | 493 kts | 58° |
| 2026-04-25 17:09 | 43.52150 | -66.01073 | 33020 ft | 493 kts | 58° |
| 2026-04-25 17:09 | 43.55254 | -65.92643 | 33012 ft | 492 kts | 58° |
| 2026-04-25 17:10 | 43.58332 | -65.84260 | 33000 ft | 491 kts | 58° |
| 2026-04-25 17:10 | 43.61410 | -65.75854 | 32998 ft | 490 kts | 58° |
| 2026-04-25 17:11 | 43.64477 | -65.67453 | 32999 ft | 489 kts | 58° |
| 2026-04-25 17:11 | 43.67507 | -65.59129 | 32990 ft | 488 kts | 59° |
| 2026-04-25 17:12 | 43.70571 | -65.50689 | 33001 ft | 488 kts | 59° |
| 2026-04-25 17:12 | 43.73594 | -65.42333 | 32983 ft | 488 kts | 59° |
| 2026-04-25 17:13 | 43.75619 | -65.36720 | 32978 ft | 487 kts | 59° |
| 2026-04-25 17:13 | 43.79643 | -65.25534 | 32982 ft | 486 kts | 59° |
| 2026-04-25 17:14 | 43.82643 | -65.17166 | 32967 ft | 487 kts | 60° |
| 2026-04-25 17:14 | 43.85655 | -65.08738 | 32975 ft | 487 kts | 60° |
| 2026-04-25 17:15 | 43.88635 | -65.00375 | 32989 ft | 487 kts | 60° |
| 2026-04-25 17:15 | 43.91635 | -64.91930 | 32987 ft | 488 kts | 60° |
| 2026-04-25 17:16 | 43.94637 | -64.83454 | 32977 ft | 489 kts | 60° |
| 2026-04-25 17:16 | 43.97633 | -64.74967 | 32967 ft | 489 kts | 60° |
| 2026-04-25 17:17 | 44.00620 | -64.66479 | 32968 ft | 489 kts | 60° |
| 2026-04-25 17:17 | 44.03601 | -64.57979 | 32965 ft | 489 kts | 60° |
| 2026-04-25 17:18 | 44.06577 | -64.49473 | 32968 ft | 489 kts | 61° |
| 2026-04-25 17:18 | 44.09528 | -64.41008 | 32954 ft | 489 kts | 61° |
| 2026-04-25 17:19 | 44.12494 | -64.32471 | 32975 ft | 488 kts | 61° |
| 2026-04-25 17:19 | 44.15445 | -64.23954 | 32941 ft | 487 kts | 61° |
| 2026-04-25 17:20 | 44.18380 | -64.15454 | 32945 ft | 485 kts | 62° |
| 2026-04-25 17:20 | 44.21291 | -64.07000 | 32925 ft | 483 kts | 62° |
| 2026-04-25 17:21 | 44.24184 | -63.98570 | 32934 ft | 481 kts | 62° |
| 2026-04-25 17:21 | 44.27040 | -63.90221 | 32925 ft | 479 kts | 62° |
| 2026-04-25 17:22 | 44.28958 | -63.84602 | 32919 ft | 478 kts | 62° |
| 2026-04-25 17:22 | 44.32755 | -63.73442 | 32928 ft | 478 kts | 62° |
| 2026-04-25 17:23 | 44.35608 | -63.65028 | 32928 ft | 478 kts | 62° |
| 2026-04-25 17:23 | 44.38430 | -63.56678 | 32920 ft | 478 kts | 62° |
| 2026-04-25 17:24 | 44.41266 | -63.48259 | 32918 ft | 479 kts | 62° |
| 2026-04-25 17:24 | 44.44105 | -63.39802 | 32895 ft | 479 kts | 62° |
| 2026-04-25 17:25 | 44.46930 | -63.31361 | 32911 ft | 480 kts | 62° |
| 2026-04-25 17:25 | 44.49762 | -63.22874 | 32901 ft | 480 kts | 62° |
| 2026-04-25 17:26 | 44.52561 | -63.14458 | 32901 ft | 480 kts | 62° |
| 2026-04-25 17:26 | 44.55375 | -63.05970 | 32907 ft | 480 kts | 62° |
| 2026-04-25 17:27 | 44.58189 | -62.97457 | 32891 ft | 480 kts | 62° |
| 2026-04-25 17:27 | 44.60062 | -62.91773 | 32880 ft | 480 kts | 62° |
| 2026-04-25 17:28 | 44.63787 | -62.80436 | 32872 ft | 479 kts | 62° |
| 2026-04-25 17:28 | 44.66552 | -62.71987 | 32884 ft | 479 kts | 62° |
| 2026-04-25 17:29 | 44.69333 | -62.63463 | 32865 ft | 479 kts | 62° |
| 2026-04-25 17:29 | 44.72110 | -62.54926 | 32863 ft | 479 kts | 62° |
| 2026-04-25 17:30 | 44.74872 | -62.46404 | 32860 ft | 479 kts | 62° |
| 2026-04-25 17:30 | 44.77628 | -62.37873 | 32867 ft | 479 kts | 62° |
| 2026-04-25 17:31 | 44.80379 | -62.29332 | 32849 ft | 479 kts | 63° |
| 2026-04-25 17:31 | 44.83126 | -62.20774 | 32843 ft | 479 kts | 62° |
| 2026-04-25 17:32 | 44.85402 | -62.13660 | 32847 ft | 479 kts | 63° |
| 2026-04-25 17:32 | 44.88577 | -62.03706 | 32843 ft | 479 kts | 63° |
| 2026-04-25 17:33 | 44.90860 | -61.96527 | 32851 ft | 479 kts | 62° |
| 2026-04-25 17:33 | 44.93565 | -61.87990 | 32828 ft | 478 kts | 63° |
| 2026-04-25 17:34 | 44.96275 | -61.79411 | 32824 ft | 478 kts | 62° |
| 2026-04-25 17:34 | 44.98974 | -61.70840 | 32825 ft | 478 kts | 62° |
| 2026-04-25 17:35 | 45.01672 | -61.62242 | 32821 ft | 477 kts | 63° |
| 2026-04-25 17:35 | 45.04363 | -61.53643 | 32804 ft | 477 kts | 62° |
| 2026-04-25 17:36 | 45.07024 | -61.45110 | 32812 ft | 476 kts | 62° |
| 2026-04-25 17:36 | 45.09686 | -61.36535 | 32799 ft | 476 kts | 62° |
| 2026-04-25 17:37 | 45.12349 | -61.27938 | 32800 ft | 476 kts | 63° |
| 2026-04-25 17:37 | 45.15003 | -61.19338 | 32797 ft | 476 kts | 62° |
| 2026-04-25 17:38 | 45.17202 | -61.12190 | 32799 ft | 476 kts | 63° |
| 2026-04-25 17:38 | 45.20301 | -61.02085 | 32783 ft | 478 kts | 63° |
| 2026-04-25 17:39 | 45.22929 | -60.93487 | 32774 ft | 478 kts | 63° |
| 2026-04-25 17:39 | 45.25566 | -60.84826 | 32764 ft | 479 kts | 63° |
| 2026-04-25 17:40 | 45.28205 | -60.76131 | 32755 ft | 480 kts | 63° |
| 2026-04-25 17:40 | 45.30846 | -60.67395 | 32754 ft | 480 kts | 63° |
| 2026-04-25 17:41 | 45.32165 | -60.63024 | 32906 ft | 481 kts | 63° |
| 2026-04-25 17:41 | 45.33477 | -60.58663 | 33168 ft | 479 kts | 63° |
| 2026-04-25 17:41 | 45.34784 | -60.54312 | 33497 ft | 477 kts | 63° |
| 2026-04-25 17:41 | 45.36081 | -60.49986 | 33784 ft | 475 kts | 63° |
| 2026-04-25 17:42 | 45.37363 | -60.45706 | 33966 ft | 476 kts | 63° |
| 2026-04-25 17:42 | 45.38661 | -60.41367 | 34096 ft | 476 kts | 63° |
| 2026-04-25 17:42 | 45.39955 | -60.37036 | 34238 ft | 477 kts | 63° |
| 2026-04-25 17:42 | 45.41258 | -60.32666 | 34381 ft | 477 kts | 63° |
| 2026-04-25 17:43 | 45.42549 | -60.28326 | 34524 ft | 478 kts | 63° |
| 2026-04-25 17:43 | 45.43847 | -60.23958 | 34631 ft | 479 kts | 63° |
| 2026-04-25 17:43 | 45.46447 | -60.15182 | 34729 ft | 481 kts | 64° |
| 2026-04-25 17:44 | 45.49041 | -60.06389 | 34729 ft | 481 kts | 64° |
| 2026-04-25 17:44 | 45.51608 | -59.97659 | 34722 ft | 479 kts | 64° |
| 2026-04-25 17:45 | 45.53740 | -59.90386 | 34724 ft | 478 kts | 64° |
| 2026-04-25 17:45 | 45.56730 | -59.80152 | 34721 ft | 477 kts | 64° |
| 2026-04-25 17:46 | 45.59278 | -59.71396 | 34719 ft | 477 kts | 64° |
| 2026-04-25 17:46 | 45.61824 | -59.62621 | 34714 ft | 477 kts | 64° |
| 2026-04-25 17:47 | 45.64338 | -59.53919 | 34711 ft | 477 kts | 64° |
| 2026-04-25 17:47 | 45.66868 | -59.45132 | 34699 ft | 478 kts | 64° |
| 2026-04-25 17:48 | 45.70657 | -59.31920 | 34701 ft | 479 kts | 64° |
| 2026-04-25 17:49 | 45.73177 | -59.23085 | 34691 ft | 479 kts | 64° |
| 2026-04-25 17:49 | 45.75686 | -59.14262 | 34679 ft | 480 kts | 64° |
| 2026-04-25 17:50 | 45.78192 | -59.05420 | 34688 ft | 480 kts | 64° |
| 2026-04-25 17:50 | 45.80703 | -58.96525 | 34691 ft | 481 kts | 65° |
| 2026-04-25 17:51 | 45.83205 | -58.87629 | 34671 ft | 481 kts | 65° |
| 2026-04-25 17:51 | 45.85702 | -58.78718 | 34667 ft | 481 kts | 65° |
| 2026-04-25 17:52 | 45.88165 | -58.69896 | 34658 ft | 480 kts | 65° |
| 2026-04-25 17:52 | 45.90624 | -58.61055 | 34649 ft | 479 kts | 65° |
| 2026-04-25 17:53 | 45.93090 | -58.52160 | 34647 ft | 478 kts | 65° |
| 2026-04-25 17:53 | 45.95555 | -58.43236 | 34657 ft | 481 kts | 65° |
| 2026-04-25 17:54 | 45.98033 | -58.34238 | 34644 ft | 486 kts | 65° |
| 2026-04-25 17:54 | 46.00508 | -58.25208 | 34639 ft | 490 kts | 65° |
| 2026-04-25 17:55 | 46.03009 | -58.16049 | 34646 ft | 492 kts | 65° |
| 2026-04-25 17:55 | 46.05517 | -58.06828 | 34626 ft | 494 kts | 65° |
| 2026-04-25 17:56 | 46.08019 | -57.97590 | 34623 ft | 495 kts | 65° |
| 2026-04-25 17:56 | 46.10504 | -57.88383 | 34603 ft | 495 kts | 65° |
| 2026-04-25 17:57 | 46.12985 | -57.79152 | 34596 ft | 493 kts | 65° |
| 2026-04-25 17:57 | 46.15453 | -57.69934 | 34599 ft | 491 kts | 66° |
| 2026-04-25 17:58 | 46.17906 | -57.60743 | 34600 ft | 490 kts | 66° |
| 2026-04-25 17:58 | 46.20345 | -57.51562 | 34588 ft | 488 kts | 66° |
| 2026-04-25 17:59 | 46.22750 | -57.42478 | 34584 ft | 487 kts | 66° |
| 2026-04-25 17:59 | 46.25167 | -57.33313 | 34584 ft | 487 kts | 66° |
| 2026-04-25 18:00 | 46.27572 | -57.24158 | 34574 ft | 487 kts | 66° |
| 2026-04-25 18:00 | 46.29960 | -57.15032 | 34579 ft | 487 kts | 66° |
| 2026-04-25 18:01 | 46.32350 | -57.05862 | 34583 ft | 488 kts | 66° |
| 2026-04-25 18:01 | 46.34748 | -56.96626 | 34586 ft | 489 kts | 66° |
| 2026-04-25 18:02 | 46.37139 | -56.87378 | 34558 ft | 491 kts | 66° |
| 2026-04-25 18:02 | 46.39531 | -56.78087 | 34544 ft | 491 kts | 67° |
| 2026-04-25 18:03 | 46.41896 | -56.68865 | 34549 ft | 491 kts | 67° |
| 2026-04-25 18:03 | 46.44277 | -56.59544 | 34532 ft | 491 kts | 67° |
| 2026-04-25 18:04 | 46.46643 | -56.50247 | 34537 ft | 491 kts | 67° |
| 2026-04-25 18:04 | 46.49001 | -56.40940 | 34525 ft | 491 kts | 67° |
| 2026-04-25 18:05 | 46.51339 | -56.31673 | 34513 ft | 490 kts | 67° |
| 2026-04-25 18:05 | 46.53682 | -56.22351 | 34516 ft | 490 kts | 67° |
| 2026-04-25 18:06 | 46.56010 | -56.13050 | 34509 ft | 490 kts | 67° |
| 2026-04-25 18:06 | 46.58331 | -56.03740 | 34502 ft | 490 kts | 67° |
| 2026-04-25 18:07 | 46.60628 | -55.94489 | 34502 ft | 489 kts | 67° |
| 2026-04-25 18:07 | 46.62931 | -55.85172 | 34456 ft | 487 kts | 67° |
| 2026-04-25 18:07 | 46.64070 | -55.80548 | 34237 ft | 485 kts | 67° |
| 2026-04-25 18:08 | 46.65209 | -55.75914 | 33899 ft | 486 kts | 67° |
| 2026-04-25 18:08 | 46.66351 | -55.71265 | 33520 ft | 487 kts | 67° |
| 2026-04-25 18:08 | 46.67496 | -55.66595 | 33006 ft | 490 kts | 67° |
| 2026-04-25 18:08 | 46.68642 | -55.61911 | 32530 ft | 491 kts | 67° |
| 2026-04-25 18:09 | 46.69786 | -55.57221 | 32079 ft | 492 kts | 67° |
| 2026-04-25 18:09 | 46.70931 | -55.52519 | 31612 ft | 492 kts | 68° |
| 2026-04-25 18:09 | 46.72075 | -55.47807 | 31174 ft | 492 kts | 68° |
| 2026-04-25 18:09 | 46.72442 | -55.46292 | 31036 ft | 492 kts | 68° |
| 2026-04-25 18:10 | 46.74342 | -55.38439 | 30259 ft | 492 kts | 68° |
| 2026-04-25 18:10 | 46.75481 | -55.33719 | 29766 ft | 492 kts | 68° |
| 2026-04-25 18:10 | 46.76616 | -55.29005 | 29318 ft | 491 kts | 67° |
| 2026-04-25 18:10 | 46.77743 | -55.24313 | 28851 ft | 488 kts | 67° |
| 2026-04-25 18:11 | 46.78864 | -55.19641 | 28502 ft | 490 kts | 67° |
| 2026-04-25 18:11 | 46.81114 | -55.10234 | 28466 ft | 491 kts | 68° |
| 2026-04-25 18:12 | 46.83347 | -55.00857 | 28452 ft | 489 kts | 68° |
| 2026-04-25 18:12 | 46.85535 | -54.91607 | 28437 ft | 477 kts | 68° |
| 2026-04-25 18:13 | 46.87696 | -54.82454 | 28448 ft | 475 kts | 68° |
| 2026-04-25 18:13 | 46.89841 | -54.73338 | 28439 ft | 473 kts | 68° |
| 2026-04-25 18:14 | 46.93040 | -54.59663 | 28427 ft | 474 kts | 68° |
| 2026-04-25 18:14 | 46.94806 | -54.52076 | 28428 ft | 474 kts | 68° |
| 2026-04-25 18:15 | 46.97268 | -54.41454 | 28429 ft | 474 kts | 68° |
| 2026-04-25 18:15 | 46.99382 | -54.32290 | 28418 ft | 474 kts | 68° |
| 2026-04-25 18:16 | 47.01134 | -54.24661 | 28411 ft | 474 kts | 68° |
| 2026-04-25 18:17 | 47.04278 | -54.10908 | 28404 ft | 474 kts | 68° |
| 2026-04-25 18:17 | 47.06370 | -54.01709 | 28423 ft | 474 kts | 68° |
| 2026-04-25 18:18 | 47.08431 | -53.92604 | 28395 ft | 473 kts | 68° |
| 2026-04-25 18:18 | 47.10495 | -53.83449 | 28394 ft | 470 kts | 68° |
| 2026-04-25 18:19 | 47.12543 | -53.74330 | 28390 ft | 469 kts | 68° |
| 2026-04-25 18:19 | 47.14578 | -53.65225 | 28384 ft | 469 kts | 68° |
| 2026-04-25 18:20 | 47.16606 | -53.56116 | 28391 ft | 469 kts | 68° |
| 2026-04-25 18:20 | 47.18617 | -53.47042 | 28385 ft | 469 kts | 68° |
| 2026-04-25 18:21 | 47.20633 | -53.37906 | 28372 ft | 469 kts | 68° |
| 2026-04-25 18:21 | 47.22639 | -53.28773 | 28377 ft | 469 kts | 68° |
| 2026-04-25 18:22 | 47.24642 | -53.19625 | 28378 ft | 469 kts | 68° |
| 2026-04-25 18:22 | 47.26620 | -53.10536 | 28381 ft | 468 kts | 68° |
| 2026-04-25 18:23 | 47.28594 | -53.01424 | 28366 ft | 467 kts | 68° |
| 2026-04-25 18:23 | 47.30561 | -52.92311 | 28357 ft | 466 kts | 68° |
| 2026-04-25 18:24 | 47.32521 | -52.83196 | 28360 ft | 466 kts | 68° |
| 2026-04-25 18:24 | 47.34479 | -52.74049 | 28371 ft | 469 kts | 68° |
| 2026-04-25 18:25 | 47.36432 | -52.64888 | 28361 ft | 474 kts | 68° |
| 2026-04-25 18:25 | 47.38409 | -52.55563 | 28357 ft | 478 kts | 68° |
| 2026-04-25 18:26 | 47.40392 | -52.46167 | 28368 ft | 480 kts | 68° |
| 2026-04-25 18:26 | 47.42376 | -52.36717 | 28341 ft | 481 kts | 68° |
| 2026-04-25 18:27 | 47.44350 | -52.27267 | 28352 ft | 479 kts | 68° |
| 2026-04-25 18:27 | 47.46292 | -52.17935 | 28327 ft | 477 kts | 68° |
| 2026-04-25 18:28 | 47.48233 | -52.08572 | 28315 ft | 474 kts | 68° |
| 2026-04-25 18:28 | 47.50180 | -51.99265 | 28315 ft | 470 kts | 66° |
| 2026-04-25 18:29 | 47.53653 | -51.85839 | 28341 ft | 466 kts | 64° |
| 2026-04-25 18:30 | 47.58321 | -51.67922 | 28300 ft | 465 kts | 64° |
| 2026-04-25 18:30 | 47.60629 | -51.58951 | 28309 ft | 466 kts | 64° |
| 2026-04-25 18:31 | 47.62913 | -51.50027 | 28301 ft | 467 kts | 64° |
| 2026-04-25 18:31 | 47.65212 | -51.41013 | 28290 ft | 468 kts | 64° |
| 2026-04-25 18:32 | 47.67514 | -51.31949 | 28287 ft | 469 kts | 64° |
| 2026-04-25 18:32 | 47.69809 | -51.22877 | 28285 ft | 470 kts | 64° |
| 2026-04-25 18:33 | 47.72101 | -51.13779 | 28279 ft | 470 kts | 64° |
| 2026-04-25 18:33 | 47.74392 | -51.04652 | 28297 ft | 471 kts | 65° |
| 2026-04-25 18:34 | 47.76658 | -50.95588 | 28270 ft | 471 kts | 65° |
| 2026-04-25 18:34 | 47.78936 | -50.86436 | 28264 ft | 471 kts | 65° |
| 2026-04-25 18:35 | 47.81207 | -50.77275 | 28265 ft | 471 kts | 65° |
| 2026-04-25 18:35 | 47.83469 | -50.68110 | 28267 ft | 472 kts | 66° |
| 2026-04-25 18:36 | 47.85737 | -50.58898 | 28261 ft | 474 kts | 66° |
| 2026-04-25 18:36 | 47.87981 | -50.49735 | 28246 ft | 474 kts | 66° |
| 2026-04-25 18:37 | 47.90236 | -50.40487 | 28246 ft | 475 kts | 66° |
| 2026-04-25 18:37 | 47.92485 | -50.31226 | 28254 ft | 475 kts | 66° |
| 2026-04-25 18:38 | 47.94731 | -50.21942 | 28259 ft | 475 kts | 67° |
| 2026-04-25 18:38 | 47.96952 | -50.12723 | 28236 ft | 476 kts | 67° |
| 2026-04-25 18:39 | 47.99182 | -50.03429 | 28248 ft | 476 kts | 67° |
| 2026-04-25 18:39 | 48.01241 | -49.94033 | 28234 ft | 477 kts | 70° |
| 2026-04-25 18:40 | 48.03108 | -49.84499 | 28255 ft | 477 kts | 71° |
| 2026-04-25 18:40 | 48.04965 | -49.74925 | 28253 ft | 482 kts | 72° |
| 2026-04-25 18:41 | 48.06847 | -49.65258 | 28249 ft | 486 kts | 72° |
| 2026-04-25 18:41 | 48.08734 | -49.55565 | 28245 ft | 489 kts | 72° |
| 2026-04-25 18:42 | 48.10003 | -49.49028 | 28249 ft | 490 kts | 72° |
| 2026-04-25 18:42 | 48.12526 | -49.35953 | 28246 ft | 491 kts | 72° |
| 2026-04-25 18:43 | 48.14411 | -49.26130 | 28249 ft | 491 kts | 73° |
| 2026-04-25 18:43 | 48.16294 | -49.16261 | 28253 ft | 491 kts | 73° |
| 2026-04-25 18:44 | 48.18146 | -49.06498 | 28252 ft | 490 kts | 73° |
| 2026-04-25 18:44 | 48.20007 | -48.96642 | 28261 ft | 491 kts | 74° |
| 2026-04-25 18:45 | 48.21810 | -48.87052 | 28260 ft | 491 kts | 74° |
| 2026-04-25 18:45 | 48.23644 | -48.77242 | 28271 ft | 491 kts | 74° |
| 2026-04-25 18:46 | 48.25480 | -48.67361 | 28267 ft | 491 kts | 74° |
| 2026-04-25 18:46 | 48.27309 | -48.57467 | 28272 ft | 491 kts | 74° |
| 2026-04-25 18:47 | 48.29129 | -48.47571 | 28273 ft | 491 kts | 74° |
| 2026-04-25 18:47 | 48.30933 | -48.37717 | 28279 ft | 492 kts | 75° |
| 2026-04-25 18:48 | 48.32741 | -48.27778 | 28281 ft | 493 kts | 75° |
| 2026-04-25 18:48 | 48.34548 | -48.17789 | 28285 ft | 494 kts | 75° |
| 2026-04-25 18:49 | 48.36334 | -48.07864 | 28278 ft | 496 kts | 75° |
| 2026-04-25 18:49 | 48.38137 | -47.97792 | 28289 ft | 499 kts | 76° |
| 2026-04-25 18:50 | 48.39937 | -47.87694 | 28308 ft | 500 kts | 77° |
| 2026-04-25 18:50 | 48.41721 | -47.77599 | 28311 ft | 501 kts | 76° |
| 2026-04-25 18:51 | 48.42917 | -47.70803 | 28301 ft | 502 kts | 77° |
| 2026-04-25 18:51 | 48.45287 | -47.57270 | 28317 ft | 502 kts | 76° |
| 2026-04-25 18:52 | 48.47060 | -47.47083 | 28313 ft | 502 kts | 77° |
| 2026-04-25 18:52 | 48.48820 | -47.36905 | 28331 ft | 501 kts | 77° |
| 2026-04-25 18:53 | 48.50566 | -47.26762 | 28323 ft | 502 kts | 78° |
| 2026-04-25 18:53 | 48.52315 | -47.16526 | 28338 ft | 505 kts | 78° |
| 2026-04-25 18:54 | 48.54937 | -47.01060 | 28353 ft | 509 kts | 78° |
| 2026-04-25 18:55 | 48.56678 | -46.90727 | 28354 ft | 511 kts | 78° |
| 2026-04-25 18:55 | 48.58424 | -46.80302 | 28357 ft | 512 kts | 78° |
| 2026-04-25 18:56 | 48.60161 | -46.69864 | 28359 ft | 513 kts | 78° |
| 2026-04-25 18:56 | 48.61892 | -46.59404 | 28367 ft | 512 kts | 78° |
| 2026-04-25 18:57 | 48.63601 | -46.49010 | 28382 ft | 511 kts | 78° |
| 2026-04-25 18:57 | 48.65304 | -46.38575 | 28389 ft | 511 kts | 79° |
| 2026-04-25 18:58 | 48.67000 | -46.28131 | 28382 ft | 510 kts | 79° |
| 2026-04-25 18:58 | 48.69523 | -46.12471 | 28397 ft | 510 kts | 79° |
| 2026-04-25 18:59 | 48.72852 | -45.91574 | 28413 ft | 510 kts | 79° |
| 2026-04-25 19:00 | 48.75313 | -45.75950 | 28426 ft | 510 kts | 79° |
| 2026-04-25 19:01 | 48.77765 | -45.60243 | 28419 ft | 511 kts | 80° |
| 2026-04-25 19:01 | 48.79391 | -45.49737 | 28410 ft | 511 kts | 81° |
| 2026-04-25 19:02 | 48.81801 | -45.34032 | 28439 ft | 512 kts | 81° |
| 2026-04-25 19:03 | 48.83677 | -45.21707 | 28443 ft | 513 kts | 81° |
| 2026-04-25 19:03 | 48.85533 | -45.09419 | 28443 ft | 514 kts | 81° |
| 2026-04-25 19:04 | 48.87908 | -44.93545 | 28458 ft | 514 kts | 82° |
| 2026-04-25 19:05 | 48.91051 | -44.72292 | 28469 ft | 514 kts | 82° |
| 2026-04-25 19:06 | 48.92606 | -44.61676 | 28464 ft | 514 kts | 82° |
| 2026-04-25 19:06 | 48.94910 | -44.45792 | 28489 ft | 515 kts | 83° |
| 2026-04-25 19:07 | 48.97209 | -44.29776 | 28492 ft | 517 kts | 83° |
| 2026-04-25 19:08 | 48.99490 | -44.13729 | 28487 ft | 517 kts | 83° |
| 2026-04-25 19:09 | 49.02247 | -43.94096 | 28492 ft | 517 kts | 83° |
| 2026-04-25 19:10 | 49.04729 | -43.76192 | 28462 ft | 517 kts | 83° |
| 2026-04-25 19:10 | 49.06201 | -43.65477 | 28485 ft | 517 kts | 84° |
| 2026-04-25 19:11 | 49.07664 | -43.54729 | 28517 ft | 518 kts | 84° |
| 2026-04-25 19:11 | 49.09112 | -43.44019 | 28508 ft | 519 kts | 84° |
| 2026-04-25 19:12 | 49.10564 | -43.33207 | 28522 ft | 519 kts | 84° |
| 2026-04-25 19:12 | 49.12005 | -43.22395 | 28495 ft | 520 kts | 85° |
| 2026-04-25 19:13 | 49.13435 | -43.11583 | 28519 ft | 520 kts | 85° |
| 2026-04-25 19:13 | 49.14848 | -43.00822 | 28522 ft | 520 kts | 85° |
| 2026-04-25 19:14 | 49.16260 | -42.89981 | 28523 ft | 520 kts | 85° |
| 2026-04-25 19:14 | 49.17667 | -42.79104 | 28518 ft | 520 kts | 86° |
| 2026-04-25 19:15 | 49.19057 | -42.68246 | 28537 ft | 521 kts | 86° |
| 2026-04-25 19:15 | 49.20429 | -42.57378 | 28631 ft | 524 kts | 87° |
| 2026-04-25 19:15 | 49.21116 | -42.51919 | 29156 ft | 517 kts | 87° |
| 2026-04-25 19:16 | 49.21794 | -42.46567 | 29669 ft | 512 kts | 87° |
| 2026-04-25 19:16 | 49.22466 | -42.41221 | 29925 ft | 511 kts | 87° |
| 2026-04-25 19:16 | 49.23135 | -42.35861 | 30095 ft | 513 kts | 87° |
| 2026-04-25 19:16 | 49.23801 | -42.30490 | 30263 ft | 514 kts | 87° |
| 2026-04-25 19:17 | 49.24467 | -42.25104 | 30436 ft | 514 kts | 87° |
| 2026-04-25 19:17 | 49.25129 | -42.19730 | 30633 ft | 513 kts | 87° |
| 2026-04-25 19:17 | 49.25791 | -42.14354 | 30870 ft | 513 kts | 87° |
| 2026-04-25 19:17 | 49.26450 | -42.08980 | 31106 ft | 513 kts | 87° |
| 2026-04-25 19:18 | 49.27104 | -42.03627 | 31307 ft | 512 kts | 87° |
| 2026-04-25 19:18 | 49.27748 | -41.98329 | 31531 ft | 512 kts | 87° |
| 2026-04-25 19:18 | 49.28397 | -41.92961 | 31679 ft | 513 kts | 87° |
| 2026-04-25 19:18 | 49.29045 | -41.87571 | 31834 ft | 514 kts | 87° |
| 2026-04-25 19:19 | 49.29690 | -41.82196 | 32046 ft | 514 kts | 87° |
| 2026-04-25 19:19 | 49.30336 | -41.76798 | 32240 ft | 513 kts | 87° |
| 2026-04-25 19:19 | 49.30976 | -41.71418 | 32462 ft | 513 kts | 87° |
| 2026-04-25 19:19 | 49.31397 | -41.67870 | 32583 ft | 513 kts | 87° |
| 2026-04-25 19:20 | 49.32248 | -41.60664 | 32849 ft | 513 kts | 87° |
| 2026-04-25 19:20 | 49.32879 | -41.55292 | 33040 ft | 513 kts | 86° |
| 2026-04-25 19:20 | 49.33510 | -41.49897 | 33249 ft | 513 kts | 86° |
| 2026-04-25 19:20 | 49.34137 | -41.44521 | 33443 ft | 512 kts | 86° |
| 2026-04-25 19:21 | 49.34754 | -41.39202 | 33633 ft | 512 kts | 86° |
| 2026-04-25 19:21 | 49.35993 | -41.28455 | 33935 ft | 511 kts | 86° |
| 2026-04-25 19:21 | 49.36609 | -41.23083 | 34091 ft | 511 kts | 86° |
| 2026-04-25 19:22 | 49.37222 | -41.17708 | 34246 ft | 511 kts | 86° |
| 2026-04-25 19:22 | 49.37831 | -41.12345 | 34419 ft | 510 kts | 86° |
| 2026-04-25 19:22 | 49.39043 | -41.01605 | 34674 ft | 510 kts | 87° |
| 2026-04-25 19:23 | 49.39645 | -40.96235 | 34800 ft | 511 kts | 87° |
| 2026-04-25 19:23 | 49.40844 | -40.85471 | 35111 ft | 510 kts | 86° |
| 2026-04-25 19:23 | 49.41437 | -40.80114 | 35235 ft | 510 kts | 86° |
| 2026-04-25 19:24 | 49.42028 | -40.74747 | 35386 ft | 509 kts | 86° |
| 2026-04-25 19:24 | 49.42617 | -40.69377 | 35470 ft | 510 kts | 86° |
| 2026-04-25 19:25 | 49.44956 | -40.47815 | 35562 ft | 511 kts | 87° |
| 2026-04-25 19:25 | 49.46109 | -40.37049 | 35566 ft | 511 kts | 87° |
| 2026-04-25 19:26 | 49.47252 | -40.26270 | 35556 ft | 510 kts | 87° |
| 2026-04-25 19:26 | 49.48383 | -40.15525 | 35567 ft | 509 kts | 87° |
| 2026-04-25 19:27 | 49.49315 | -40.06601 | 35572 ft | 508 kts | 87° |
| 2026-04-25 19:27 | 49.50380 | -39.94119 | 35574 ft | 504 kts | 92° |
| 2026-04-25 19:28 | 49.50802 | -39.83373 | 35576 ft | 502 kts | 94° |
| 2026-04-25 19:28 | 49.51164 | -39.72640 | 35580 ft | 502 kts | 93° |
| 2026-04-25 19:29 | 49.51562 | -39.61898 | 35580 ft | 503 kts | 93° |
| 2026-04-25 19:29 | 49.51982 | -39.51148 | 35592 ft | 503 kts | 93° |
| 2026-04-25 19:30 | 49.52401 | -39.40382 | 35594 ft | 503 kts | 93° |
| 2026-04-25 19:30 | 49.52808 | -39.29628 | 35572 ft | 503 kts | 93° |
| 2026-04-25 19:31 | 49.53203 | -39.18868 | 35590 ft | 503 kts | 93° |
| 2026-04-25 19:31 | 49.53584 | -39.08187 | 35602 ft | 503 kts | 93° |
| 2026-04-25 19:32 | 49.53958 | -38.97418 | 35619 ft | 504 kts | 93° |
| 2026-04-25 19:32 | 49.54203 | -38.90214 | 35595 ft | 505 kts | 93° |
| 2026-04-25 19:33 | 49.54679 | -38.75819 | 35603 ft | 505 kts | 93° |
| 2026-04-25 19:33 | 49.55024 | -38.65020 | 35613 ft | 504 kts | 93° |
| 2026-04-25 19:34 | 49.55359 | -38.54237 | 35608 ft | 504 kts | 94° |
| 2026-04-25 19:34 | 49.55683 | -38.43478 | 35615 ft | 503 kts | 94° |
| 2026-04-25 19:35 | 49.55997 | -38.32708 | 35628 ft | 503 kts | 94° |
| 2026-04-25 19:35 | 49.56263 | -38.23261 | 35619 ft | 504 kts | 94° |
| 2026-04-25 19:36 | 49.56559 | -38.12461 | 35616 ft | 503 kts | 94° |
| 2026-04-25 19:36 | 49.56844 | -38.01762 | 35626 ft | 503 kts | 94° |
| 2026-04-25 19:37 | 49.57119 | -37.90995 | 35628 ft | 502 kts | 94° |
| 2026-04-25 19:37 | 49.57384 | -37.80247 | 35634 ft | 502 kts | 94° |
| 2026-04-25 19:38 | 49.57638 | -37.69493 | 35637 ft | 502 kts | 94° |
| 2026-04-25 19:38 | 49.57883 | -37.58757 | 35629 ft | 501 kts | 94° |
| 2026-04-25 19:39 | 49.58117 | -37.48049 | 35639 ft | 500 kts | 94° |
| 2026-04-25 19:39 | 49.58341 | -37.37359 | 35648 ft | 499 kts | 94° |
| 2026-04-25 19:40 | 49.58555 | -37.26675 | 35650 ft | 498 kts | 94° |
| 2026-04-25 19:40 | 49.58758 | -37.16006 | 35656 ft | 498 kts | 94° |
| 2026-04-25 19:41 | 49.58951 | -37.05342 | 35639 ft | 497 kts | 95° |
| 2026-04-25 19:41 | 49.59074 | -36.98294 | 35625 ft | 497 kts | 95° |
| 2026-04-25 19:42 | 49.59307 | -36.84127 | 35663 ft | 497 kts | 95° |
| 2026-04-25 19:42 | 49.59470 | -36.73490 | 35673 ft | 497 kts | 95° |
| 2026-04-25 19:43 | 49.59625 | -36.62811 | 35689 ft | 498 kts | 95° |
| 2026-04-25 19:43 | 49.59770 | -36.52118 | 35677 ft | 499 kts | 95° |
| 2026-04-25 19:44 | 49.59905 | -36.41413 | 35688 ft | 500 kts | 95° |
| 2026-04-25 19:44 | 49.60031 | -36.30678 | 35698 ft | 500 kts | 95° |
| 2026-04-25 19:45 | 49.60147 | -36.19946 | 35668 ft | 501 kts | 95° |
| 2026-04-25 19:45 | 49.60252 | -36.09262 | 35701 ft | 501 kts | 95° |
| 2026-04-25 19:46 | 49.60349 | -35.98499 | 35708 ft | 502 kts | 95° |
| 2026-04-25 19:47 | 49.60422 | -35.89408 | 35703 ft | 504 kts | 95° |
| 2026-04-25 19:47 | 49.60488 | -35.80399 | 35723 ft | 505 kts | 95° |
| 2026-04-25 19:48 | 49.60557 | -35.69554 | 35725 ft | 507 kts | 96° |
| 2026-04-25 19:48 | 49.60618 | -35.58654 | 35732 ft | 509 kts | 96° |
| 2026-04-25 19:49 | 49.60661 | -35.49588 | 35730 ft | 509 kts | 96° |
| 2026-04-25 19:49 | 49.60708 | -35.36800 | 35722 ft | 510 kts | 95° |
| 2026-04-25 19:50 | 49.60749 | -35.20364 | 35755 ft | 512 kts | 96° |
| 2026-04-25 19:51 | 49.60763 | -35.09379 | 35761 ft | 513 kts | 96° |
| 2026-04-25 19:51 | 49.60767 | -34.98379 | 35766 ft | 514 kts | 96° |
| 2026-04-25 19:52 | 49.60760 | -34.87361 | 35753 ft | 514 kts | 95° |
| 2026-04-25 19:52 | 49.60744 | -34.76416 | 35780 ft | 513 kts | 96° |
| 2026-04-25 19:53 | 49.60717 | -34.65414 | 35783 ft | 513 kts | 96° |
| 2026-04-25 19:53 | 49.60679 | -34.54428 | 35788 ft | 512 kts | 95° |
| 2026-04-25 19:54 | 49.60630 | -34.43466 | 35796 ft | 511 kts | 96° |
| 2026-04-25 19:54 | 49.60572 | -34.32502 | 35788 ft | 511 kts | 95° |
| 2026-04-25 19:55 | 49.60503 | -34.21552 | 35802 ft | 511 kts | 96° |
| 2026-04-25 19:55 | 49.60424 | -34.10607 | 35817 ft | 510 kts | 96° |
| 2026-04-25 19:56 | 49.60334 | -33.99664 | 35818 ft | 510 kts | 96° |
| 2026-04-25 19:56 | 49.60234 | -33.88735 | 35827 ft | 510 kts | 96° |
| 2026-04-25 19:57 | 49.60124 | -33.77812 | 35824 ft | 510 kts | 96° |
| 2026-04-25 19:57 | 49.60004 | -33.66883 | 35843 ft | 510 kts | 96° |
| 2026-04-25 19:58 | 49.59874 | -33.55950 | 35842 ft | 510 kts | 96° |
| 2026-04-25 19:58 | 49.59734 | -33.45100 | 35849 ft | 510 kts | 96° |
| 2026-04-25 19:59 | 49.59583 | -33.34169 | 35850 ft | 510 kts | 96° |
| 2026-04-25 19:59 | 49.59421 | -33.23232 | 35851 ft | 510 kts | 96° |
| 2026-04-25 20:00 | 49.59250 | -33.12298 | 35865 ft | 510 kts | 96° |
| 2026-04-25 20:00 | 49.59067 | -33.01343 | 35865 ft | 510 kts | 96° |
| 2026-04-25 20:01 | 49.58775 | -32.84945 | 35886 ft | 511 kts | 96° |
| 2026-04-25 20:01 | 49.58567 | -32.74016 | 35887 ft | 511 kts | 96° |
| 2026-04-25 20:02 | 49.58349 | -32.63062 | 35879 ft | 511 kts | 96° |
| 2026-04-25 20:02 | 49.58120 | -32.52118 | 35905 ft | 511 kts | 96° |
| 2026-04-25 20:03 | 49.57883 | -32.41239 | 35903 ft | 511 kts | 96° |
| 2026-04-25 20:03 | 49.57632 | -32.30230 | 35909 ft | 511 kts | 96° |
| 2026-04-25 20:04 | 49.57372 | -32.19282 | 35916 ft | 511 kts | 96° |
| 2026-04-25 20:04 | 49.57104 | -32.08425 | 35922 ft | 511 kts | 96° |
| 2026-04-25 20:05 | 49.56823 | -31.97427 | 35928 ft | 510 kts | 96° |
| 2026-04-25 20:05 | 49.56534 | -31.86563 | 35930 ft | 510 kts | 96° |
| 2026-04-25 20:06 | 49.56235 | -31.75668 | 35937 ft | 510 kts | 96° |
| 2026-04-25 20:06 | 49.55924 | -31.64746 | 35955 ft | 510 kts | 96° |
| 2026-04-25 20:07 | 49.55603 | -31.53833 | 35940 ft | 510 kts | 96° |
| 2026-04-25 20:07 | 49.55272 | -31.42894 | 35951 ft | 510 kts | 96° |
| 2026-04-25 20:08 | 49.54931 | -31.31988 | 35966 ft | 510 kts | 96° |
| 2026-04-25 20:08 | 49.54581 | -31.21137 | 35976 ft | 510 kts | 96° |
| 2026-04-25 20:09 | 49.54219 | -31.10207 | 35972 ft | 511 kts | 97° |
| 2026-04-25 20:09 | 49.53846 | -30.99281 | 35978 ft | 511 kts | 96° |
| 2026-04-25 20:10 | 49.53464 | -30.88376 | 35987 ft | 511 kts | 96° |
| 2026-04-25 20:10 | 49.53071 | -30.77432 | 35990 ft | 511 kts | 97° |
| 2026-04-25 20:11 | 49.52668 | -30.66529 | 35979 ft | 510 kts | 97° |
| 2026-04-25 20:11 | 49.52256 | -30.55619 | 35998 ft | 510 kts | 97° |
| 2026-04-25 20:12 | 49.51833 | -30.44727 | 35994 ft | 510 kts | 96° |
| 2026-04-25 20:12 | 49.51548 | -30.37519 | 36010 ft | 510 kts | 97° |
| 2026-04-25 20:13 | 49.50959 | -30.22945 | 36004 ft | 510 kts | 97° |
| 2026-04-25 20:13 | 49.50508 | -30.12021 | 36012 ft | 511 kts | 97° |
| 2026-04-25 20:14 | 49.50061 | -30.01104 | 36012 ft | 511 kts | 95° |
| 2026-04-25 20:14 | 49.50311 | -29.90142 | 36013 ft | 514 kts | 88° |
| 2026-04-25 20:15 | 49.50821 | -29.79156 | 36025 ft | 514 kts | 88° |
| 2026-04-25 20:15 | 49.51305 | -29.68238 | 36033 ft | 515 kts | 89° |
| 2026-04-25 20:16 | 49.51755 | -29.57228 | 36034 ft | 515 kts | 89° |
| 2026-04-25 20:16 | 49.52183 | -29.46208 | 36026 ft | 515 kts | 88° |
| 2026-04-25 20:17 | 49.52591 | -29.35402 | 36041 ft | 515 kts | 88° |
| 2026-04-25 20:17 | 49.52999 | -29.24389 | 36038 ft | 516 kts | 89° |
| 2026-04-25 20:18 | 49.53399 | -29.13356 | 36052 ft | 516 kts | 89° |
| 2026-04-25 20:18 | 49.53787 | -29.02339 | 36048 ft | 516 kts | 89° |
| 2026-04-25 20:19 | 49.54164 | -28.91326 | 36061 ft | 515 kts | 89° |
| 2026-04-25 20:19 | 49.54531 | -28.80299 | 36049 ft | 514 kts | 89° |
| 2026-04-25 20:20 | 49.54885 | -28.69375 | 36061 ft | 514 kts | 89° |
| 2026-04-25 20:20 | 49.55229 | -28.58393 | 36061 ft | 513 kts | 89° |
| 2026-04-25 20:21 | 49.55575 | -28.47410 | 36060 ft | 513 kts | 88° |
| 2026-04-25 20:21 | 49.55908 | -28.36452 | 36061 ft | 512 kts | 89° |
| 2026-04-25 20:22 | 49.56118 | -28.29124 | 36064 ft | 512 kts | 89° |
| 2026-04-25 20:22 | 49.56521 | -28.14457 | 36065 ft | 512 kts | 89° |
| 2026-04-25 20:23 | 49.56812 | -28.03483 | 36069 ft | 512 kts | 89° |
| 2026-04-25 20:23 | 49.57091 | -27.92584 | 36072 ft | 512 kts | 89° |
| 2026-04-25 20:24 | 49.57363 | -27.81621 | 36053 ft | 512 kts | 89° |
| 2026-04-25 20:24 | 49.57624 | -27.70672 | 36071 ft | 511 kts | 89° |
| 2026-04-25 20:25 | 49.57875 | -27.59702 | 36214 ft | 512 kts | 89° |
| 2026-04-25 20:25 | 49.57996 | -27.54226 | 36405 ft | 511 kts | 89° |
| 2026-04-25 20:25 | 49.58115 | -27.48761 | 36601 ft | 509 kts | 89° |
| 2026-04-25 20:26 | 49.58231 | -27.43296 | 36823 ft | 507 kts | 89° |
| 2026-04-25 20:26 | 49.58343 | -27.37870 | 36969 ft | 507 kts | 89° |
| 2026-04-25 20:26 | 49.58561 | -27.26994 | 37074 ft | 508 kts | 89° |
| 2026-04-25 20:27 | 49.58770 | -27.16080 | 37095 ft | 508 kts | 89° |
| 2026-04-25 20:27 | 49.58869 | -27.10661 | 36928 ft | 504 kts | 89° |
| 2026-04-25 20:27 | 49.58966 | -27.05266 | 36526 ft | 505 kts | 89° |
| 2026-04-25 20:28 | 49.59061 | -26.99838 | 36149 ft | 506 kts | 89° |
| 2026-04-25 20:29 | 49.59482 | -26.73602 | 36087 ft | 510 kts | 89° |
| 2026-04-25 20:29 | 49.59641 | -26.62647 | 36099 ft | 511 kts | 89° |
| 2026-04-25 20:30 | 49.59789 | -26.51774 | 35991 ft | 502 kts | 89° |
| 2026-04-25 20:30 | 49.59924 | -26.41104 | 35994 ft | 495 kts | 89° |
| 2026-04-25 20:31 | 49.60048 | -26.30474 | 36109 ft | 498 kts | 89° |
| 2026-04-25 20:31 | 49.60162 | -26.19818 | 36117 ft | 501 kts | 90° |
| 2026-04-25 20:32 | 49.60268 | -26.09149 | 35734 ft | 496 kts | 90° |
| 2026-04-25 20:32 | 49.60317 | -26.03822 | 35345 ft | 497 kts | 90° |
| 2026-04-25 20:32 | 49.60363 | -25.98485 | 34923 ft | 499 kts | 90° |
| 2026-04-25 20:33 | 49.60407 | -25.93115 | 34492 ft | 501 kts | 90° |
| 2026-04-25 20:33 | 49.60449 | -25.87733 | 34071 ft | 503 kts | 90° |
| 2026-04-25 20:33 | 49.60489 | -25.82345 | 33602 ft | 504 kts | 90° |
| 2026-04-25 20:33 | 49.60514 | -25.78690 | 33263 ft | 504 kts | 90° |
| 2026-04-25 20:34 | 49.60560 | -25.71512 | 32589 ft | 506 kts | 90° |
| 2026-04-25 20:34 | 49.60592 | -25.66093 | 32055 ft | 507 kts | 89° |
| 2026-04-25 20:34 | 49.60622 | -25.60641 | 31527 ft | 509 kts | 89° |
| 2026-04-25 20:34 | 49.60650 | -25.55170 | 30993 ft | 510 kts | 89° |
| 2026-04-25 20:35 | 49.60674 | -25.49700 | 30484 ft | 511 kts | 89° |
| 2026-04-25 20:35 | 49.60696 | -25.44234 | 29982 ft | 510 kts | 89° |
| 2026-04-25 20:35 | 49.60716 | -25.38764 | 29388 ft | 510 kts | 89° |
| 2026-04-25 20:35 | 49.60734 | -25.33277 | 29157 ft | 513 kts | 89° |
| 2026-04-25 20:36 | 49.60760 | -25.22294 | 29121 ft | 513 kts | 89° |
| 2026-04-25 20:36 | 49.60776 | -25.11298 | 29111 ft | 513 kts | 89° |
| 2026-04-25 20:37 | 49.60781 | -25.00300 | 29118 ft | 512 kts | 89° |
| 2026-04-25 20:37 | 49.60776 | -24.89315 | 29111 ft | 511 kts | 89° |
| 2026-04-25 20:38 | 49.60761 | -24.78354 | 29116 ft | 510 kts | 89° |
| 2026-04-25 20:38 | 49.60736 | -24.67424 | 29119 ft | 510 kts | 89° |
| 2026-04-25 20:39 | 49.60699 | -24.56494 | 29112 ft | 510 kts | 89° |
| 2026-04-25 20:39 | 49.60670 | -24.49256 | 29126 ft | 510 kts | 89° |
| 2026-04-25 20:40 | 49.60598 | -24.34686 | 29117 ft | 509 kts | 89° |
| 2026-04-25 20:40 | 49.60531 | -24.23777 | 29117 ft | 509 kts | 89° |
| 2026-04-25 20:41 | 49.60455 | -24.12884 | 29116 ft | 509 kts | 89° |
| 2026-04-25 20:41 | 49.60367 | -24.01963 | 29126 ft | 508 kts | 89° |
| 2026-04-25 20:42 | 49.60270 | -23.91076 | 29121 ft | 508 kts | 89° |
| 2026-04-25 20:42 | 49.60163 | -23.80204 | 29118 ft | 507 kts | 89° |
| 2026-04-25 20:43 | 49.60046 | -23.69314 | 29117 ft | 507 kts | 89° |
| 2026-04-25 20:43 | 49.59919 | -23.58523 | 29115 ft | 507 kts | 89° |
| 2026-04-25 20:44 | 49.59781 | -23.47632 | 29118 ft | 508 kts | 89° |
| 2026-04-25 20:44 | 49.59634 | -23.36747 | 29122 ft | 508 kts | 89° |
| 2026-04-25 20:45 | 49.59475 | -23.25850 | 29122 ft | 508 kts | 89° |
| 2026-04-25 20:45 | 49.59306 | -23.14956 | 29121 ft | 508 kts | 89° |
| 2026-04-25 20:46 | 49.59127 | -23.04052 | 29133 ft | 508 kts | 89° |
| 2026-04-25 20:46 | 49.58938 | -22.93183 | 29123 ft | 507 kts | 89° |
| 2026-04-25 20:47 | 49.58739 | -22.82305 | 29118 ft | 507 kts | 89° |
| 2026-04-25 20:47 | 49.58532 | -22.71531 | 29122 ft | 507 kts | 89° |
| 2026-04-25 20:48 | 49.58314 | -22.60675 | 29125 ft | 507 kts | 89° |
| 2026-04-25 20:48 | 49.58084 | -22.49818 | 29132 ft | 506 kts | 89° |
| 2026-04-25 20:49 | 49.57846 | -22.38986 | 29120 ft | 505 kts | 89° |
| 2026-04-25 20:49 | 49.57598 | -22.28191 | 29127 ft | 504 kts | 89° |
| 2026-04-25 20:50 | 49.57340 | -22.17384 | 29124 ft | 504 kts | 89° |
| 2026-04-25 20:50 | 49.57118 | -22.08417 | 29125 ft | 504 kts | 89° |
| 2026-04-25 20:51 | 49.56841 | -21.97609 | 29128 ft | 503 kts | 89° |
| 2026-04-25 20:51 | 49.56555 | -21.86863 | 29121 ft | 501 kts | 89° |
| 2026-04-25 20:52 | 49.56312 | -21.77969 | 29135 ft | 500 kts | 89° |
| 2026-04-25 20:52 | 49.55958 | -21.65439 | 29132 ft | 500 kts | 89° |
| 2026-04-25 20:53 | 49.55646 | -21.54787 | 29154 ft | 501 kts | 89° |
| 2026-04-25 20:53 | 49.55322 | -21.44089 | 29131 ft | 498 kts | 89° |
| 2026-04-25 20:54 | 49.54990 | -21.33465 | 29122 ft | 496 kts | 90° |
| 2026-04-25 20:54 | 49.54650 | -21.22862 | 29131 ft | 495 kts | 90° |
| 2026-04-25 20:55 | 49.54301 | -21.12271 | 29132 ft | 496 kts | 90° |
| 2026-04-25 20:55 | 49.53943 | -21.01673 | 29146 ft | 495 kts | 91° |
| 2026-04-25 20:56 | 49.53574 | -20.91101 | 29131 ft | 493 kts | 91° |
| 2026-04-25 20:56 | 49.53196 | -20.80576 | 29134 ft | 491 kts | 91° |
| 2026-04-25 20:57 | 49.52814 | -20.70144 | 29135 ft | 491 kts | 91° |
| 2026-04-25 20:57 | 49.52421 | -20.59649 | 29137 ft | 492 kts | 91° |
| 2026-04-25 20:58 | 49.52016 | -20.49121 | 29140 ft | 492 kts | 92° |
| 2026-04-25 20:58 | 49.51602 | -20.38621 | 29142 ft | 491 kts | 93° |
| 2026-04-25 20:59 | 49.51179 | -20.28134 | 29139 ft | 489 kts | 93° |
| 2026-04-25 20:59 | 49.50750 | -20.17711 | 29142 ft | 488 kts | 93° |
| 2026-04-25 21:00 | 49.50387 | -20.09046 | 29142 ft | 488 kts | 93° |
| 2026-04-25 21:01 | 49.50040 | -19.91739 | 29143 ft | 486 kts | 88° |
| 2026-04-25 21:01 | 49.50308 | -19.81348 | 29148 ft | 486 kts | 88° |
| 2026-04-25 21:02 | 49.50571 | -19.70940 | 29151 ft | 487 kts | 88° |
| 2026-04-25 21:02 | 49.50786 | -19.60526 | 29150 ft | 487 kts | 89° |
| 2026-04-25 21:03 | 49.50971 | -19.50097 | 29152 ft | 487 kts | 89° |
| 2026-04-25 21:03 | 49.51143 | -19.39656 | 29152 ft | 487 kts | 89° |
| 2026-04-25 21:04 | 49.51306 | -19.29240 | 29155 ft | 486 kts | 89° |
| 2026-04-25 21:04 | 49.51461 | -19.18906 | 29156 ft | 486 kts | 89° |
| 2026-04-25 21:05 | 49.51609 | -19.08506 | 29152 ft | 486 kts | 90° |
| 2026-04-25 21:05 | 49.51746 | -18.98097 | 29156 ft | 486 kts | 90° |
| 2026-04-25 21:06 | 49.51874 | -18.87707 | 29158 ft | 486 kts | 90° |
| 2026-04-25 21:06 | 49.51993 | -18.77295 | 29158 ft | 486 kts | 90° |
| 2026-04-25 21:07 | 49.52102 | -18.66891 | 29163 ft | 486 kts | 90° |
| 2026-04-25 21:07 | 49.52203 | -18.56466 | 29163 ft | 486 kts | 90° |
| 2026-04-25 21:08 | 49.52294 | -18.46056 | 29163 ft | 486 kts | 90° |
| 2026-04-25 21:08 | 49.52375 | -18.35641 | 29163 ft | 486 kts | 90° |
| 2026-04-25 21:09 | 49.52480 | -18.20039 | 29158 ft | 486 kts | 91° |
| 2026-04-25 21:09 | 49.52538 | -18.09701 | 29167 ft | 486 kts | 91° |
| 2026-04-25 21:10 | 49.52587 | -17.99282 | 29169 ft | 487 kts | 91° |
| 2026-04-25 21:10 | 49.52626 | -17.88860 | 29169 ft | 487 kts | 91° |
| 2026-04-25 21:11 | 49.52657 | -17.78419 | 29172 ft | 487 kts | 91° |
| 2026-04-25 21:11 | 49.52678 | -17.67999 | 29166 ft | 487 kts | 92° |
| 2026-04-25 21:12 | 49.52689 | -17.57580 | 29172 ft | 487 kts | 92° |
| 2026-04-25 21:12 | 49.52692 | -17.48899 | 29171 ft | 487 kts | 92° |
| 2026-04-25 21:13 | 49.52684 | -17.36736 | 29174 ft | 486 kts | 92° |
| 2026-04-25 21:13 | 49.52667 | -17.26319 | 29161 ft | 486 kts | 93° |
| 2026-04-25 21:14 | 49.52642 | -17.15908 | 29184 ft | 487 kts | 93° |
| 2026-04-25 21:14 | 49.52606 | -17.05537 | 29180 ft | 488 kts | 93° |
| 2026-04-25 21:15 | 49.52562 | -16.95196 | 29186 ft | 488 kts | 93° |
| 2026-04-25 21:15 | 49.52508 | -16.84727 | 29191 ft | 488 kts | 93° |
| 2026-04-25 21:16 | 49.52445 | -16.74277 | 29172 ft | 488 kts | 94° |
| 2026-04-25 21:16 | 49.52372 | -16.63846 | 29186 ft | 487 kts | 94° |
| 2026-04-25 21:17 | 49.52290 | -16.53411 | 29183 ft | 487 kts | 94° |
| 2026-04-25 21:17 | 49.52198 | -16.42991 | 29185 ft | 487 kts | 94° |
| 2026-04-25 21:18 | 49.52097 | -16.32569 | 29171 ft | 487 kts | 94° |
| 2026-04-25 21:18 | 49.51987 | -16.22143 | 29184 ft | 487 kts | 94° |
| 2026-04-25 21:19 | 49.51868 | -16.11749 | 29196 ft | 487 kts | 94° |
| 2026-04-25 21:19 | 49.51739 | -16.01312 | 29194 ft | 486 kts | 95° |
| 2026-04-25 21:20 | 49.51625 | -15.92681 | 29196 ft | 485 kts | 95° |
| 2026-04-25 21:20 | 49.51455 | -15.80606 | 29195 ft | 485 kts | 95° |
| 2026-04-25 21:21 | 49.51299 | -15.70225 | 29199 ft | 485 kts | 95° |
| 2026-04-25 21:21 | 49.51133 | -15.59843 | 29200 ft | 486 kts | 95° |
| 2026-04-25 21:22 | 49.50958 | -15.49458 | 29205 ft | 486 kts | 95° |
| 2026-04-25 21:22 | 49.50774 | -15.39061 | 29182 ft | 486 kts | 95° |
| 2026-04-25 21:23 | 49.50580 | -15.28649 | 29206 ft | 486 kts | 95° |
| 2026-04-25 21:23 | 49.50378 | -15.18300 | 29216 ft | 487 kts | 95° |
| 2026-04-25 21:24 | 49.50165 | -15.07800 | 29211 ft | 488 kts | 96° |
| 2026-04-25 21:24 | 49.49955 | -14.97415 | 29214 ft | 489 kts | 95° |
| 2026-04-25 21:25 | 49.49967 | -14.86931 | 29199 ft | 490 kts | 93° |
| 2026-04-25 21:25 | 49.50051 | -14.76376 | 29338 ft | 498 kts | 93° |
| 2026-04-25 21:26 | 49.50079 | -14.71047 | 29547 ft | 499 kts | 93° |
| 2026-04-25 21:26 | 49.50097 | -14.65713 | 29892 ft | 498 kts | 94° |
| 2026-04-25 21:26 | 49.50106 | -14.60461 | 30266 ft | 496 kts | 94° |
| 2026-04-25 21:26 | 49.50110 | -14.55165 | 30564 ft | 495 kts | 94° |
| 2026-04-25 21:27 | 49.50109 | -14.49879 | 30746 ft | 496 kts | 94° |
| 2026-04-25 21:27 | 49.50106 | -14.44558 | 30912 ft | 497 kts | 94° |
| 2026-04-25 21:27 | 49.50101 | -14.39225 | 31085 ft | 499 kts | 94° |
| 2026-04-25 21:27 | 49.50094 | -14.33874 | 31324 ft | 499 kts | 94° |
| 2026-04-25 21:28 | 49.50086 | -14.28545 | 31605 ft | 498 kts | 94° |
| 2026-04-25 21:28 | 49.50076 | -14.23224 | 31870 ft | 498 kts | 95° |
| 2026-04-25 21:28 | 49.50062 | -14.17908 | 32108 ft | 498 kts | 95° |
| 2026-04-25 21:28 | 49.50047 | -14.12588 | 32338 ft | 498 kts | 95° |
| 2026-04-25 21:29 | 49.50030 | -14.07248 | 32589 ft | 498 kts | 95° |
| 2026-04-25 21:29 | 49.50009 | -14.01931 | 32837 ft | 498 kts | 95° |
| 2026-04-25 21:29 | 49.49866 | -13.96613 | 33074 ft | 495 kts | 99° |
| 2026-04-25 21:29 | 49.49571 | -13.91348 | 33168 ft | 496 kts | 100° |
| 2026-04-25 21:30 | 49.48921 | -13.80762 | 33220 ft | 497 kts | 100° |
| 2026-04-25 21:30 | 49.48379 | -13.71979 | 33296 ft | 498 kts | 100° |
| 2026-04-25 21:31 | 49.47947 | -13.64881 | 33602 ft | 498 kts | 100° |
| 2026-04-25 21:31 | 49.47627 | -13.59585 | 33883 ft | 496 kts | 100° |
| 2026-04-25 21:31 | 49.47308 | -13.54309 | 34144 ft | 496 kts | 100° |
| 2026-04-25 21:31 | 49.46986 | -13.49014 | 34244 ft | 498 kts | 100° |
| 2026-04-25 21:32 | 49.46660 | -13.43705 | 34368 ft | 499 kts | 100° |
| 2026-04-25 21:32 | 49.46332 | -13.38394 | 34581 ft | 498 kts | 100° |
| 2026-04-25 21:32 | 49.46002 | -13.33095 | 34819 ft | 497 kts | 100° |
| 2026-04-25 21:32 | 49.45671 | -13.27821 | 35029 ft | 497 kts | 100° |
| 2026-04-25 21:33 | 49.45341 | -13.22603 | 35221 ft | 497 kts | 100° |
| 2026-04-25 21:33 | 49.45005 | -13.17333 | 35400 ft | 496 kts | 100° |
| 2026-04-25 21:33 | 49.44665 | -13.12032 | 35580 ft | 496 kts | 100° |
| 2026-04-25 21:33 | 49.44324 | -13.06766 | 35739 ft | 496 kts | 100° |
| 2026-04-25 21:34 | 49.43979 | -13.01491 | 35860 ft | 498 kts | 100° |
| 2026-04-25 21:34 | 49.43630 | -12.96180 | 35990 ft | 498 kts | 100° |
| 2026-04-25 21:34 | 49.43281 | -12.90894 | 36135 ft | 498 kts | 100° |
| 2026-04-25 21:34 | 49.42926 | -12.85576 | 36186 ft | 500 kts | 100° |
| 2026-04-25 21:35 | 49.42571 | -12.80274 | 36353 ft | 499 kts | 100° |
| 2026-04-25 21:35 | 49.42215 | -12.74993 | 36572 ft | 497 kts | 100° |
| 2026-04-25 21:35 | 49.41857 | -12.69706 | 36785 ft | 496 kts | 100° |
| 2026-04-25 21:35 | 49.41497 | -12.64446 | 36987 ft | 495 kts | 100° |
| 2026-04-25 21:36 | 49.41135 | -12.59192 | 37126 ft | 495 kts | 100° |
| 2026-04-25 21:36 | 49.40769 | -12.53924 | 37148 ft | 496 kts | 100° |
| 2026-04-25 21:36 | 49.40157 | -12.45192 | 37237 ft | 497 kts | 100° |
| 2026-04-25 21:37 | 49.39534 | -12.36392 | 37245 ft | 498 kts | 100° |
| 2026-04-25 21:37 | 49.38647 | -12.24020 | 37236 ft | 499 kts | 100° |
| 2026-04-25 21:38 | 49.37878 | -12.13429 | 37237 ft | 499 kts | 100° |
| 2026-04-25 21:38 | 49.37100 | -12.02863 | 37233 ft | 498 kts | 100° |
| 2026-04-25 21:39 | 49.36313 | -11.92308 | 37235 ft | 498 kts | 100° |
| 2026-04-25 21:39 | 49.35519 | -11.81789 | 37221 ft | 497 kts | 100° |
| 2026-04-25 21:40 | 49.34713 | -11.71241 | 37232 ft | 496 kts | 100° |
| 2026-04-25 21:40 | 49.33901 | -11.60747 | 37220 ft | 496 kts | 100° |
| 2026-04-25 21:41 | 49.33082 | -11.50293 | 37235 ft | 496 kts | 100° |
| 2026-04-25 21:41 | 49.32252 | -11.39824 | 37236 ft | 496 kts | 100° |
| 2026-04-25 21:42 | 49.31411 | -11.29329 | 37241 ft | 496 kts | 101° |
| 2026-04-25 21:42 | 49.30561 | -11.18847 | 37241 ft | 496 kts | 101° |
| 2026-04-25 21:43 | 49.29701 | -11.08364 | 37238 ft | 496 kts | 101° |
| 2026-04-25 21:43 | 49.28831 | -10.97883 | 37230 ft | 496 kts | 101° |
| 2026-04-25 21:44 | 49.27952 | -10.87403 | 37237 ft | 496 kts | 101° |
| 2026-04-25 21:45 | 49.26615 | -10.71687 | 37235 ft | 496 kts | 101° |
| 2026-04-25 21:45 | 49.25711 | -10.61206 | 37218 ft | 497 kts | 101° |
| 2026-04-25 21:46 | 49.24797 | -10.50708 | 37232 ft | 497 kts | 101° |
| 2026-04-25 21:46 | 49.23874 | -10.40237 | 37242 ft | 497 kts | 101° |
| 2026-04-25 21:47 | 49.22939 | -10.29739 | 37242 ft | 498 kts | 101° |
| 2026-04-25 21:47 | 49.21996 | -10.19253 | 37230 ft | 498 kts | 101° |
| 2026-04-25 21:48 | 49.21041 | -10.08750 | 37242 ft | 498 kts | 101° |
| 2026-04-25 21:48 | 49.20077 | -9.98258 | 37239 ft | 499 kts | 101° |
| 2026-04-25 21:49 | 49.19103 | -9.87761 | 37243 ft | 499 kts | 101° |
| 2026-04-25 21:49 | 49.18119 | -9.77269 | 37226 ft | 499 kts | 101° |
| 2026-04-25 21:50 | 49.17132 | -9.66842 | 37235 ft | 498 kts | 101° |
| 2026-04-25 21:50 | 49.16130 | -9.56367 | 37241 ft | 498 kts | 101° |
| 2026-04-25 21:51 | 49.15118 | -9.45890 | 37238 ft | 498 kts | 101° |
| 2026-04-25 21:51 | 49.14098 | -9.35428 | 37230 ft | 498 kts | 102° |
| 2026-04-25 21:52 | 49.13068 | -9.24964 | 37241 ft | 498 kts | 102° |
| 2026-04-25 21:52 | 49.12029 | -9.14512 | 37243 ft | 498 kts | 102° |
| 2026-04-25 21:53 | 49.10982 | -9.04081 | 37240 ft | 498 kts | 102° |
| 2026-04-25 21:53 | 49.09924 | -8.93637 | 37239 ft | 498 kts | 102° |
| 2026-04-25 21:54 | 49.08857 | -8.83200 | 37225 ft | 498 kts | 102° |
| 2026-04-25 21:54 | 49.07782 | -8.72777 | 37240 ft | 498 kts | 102° |
| 2026-04-25 21:55 | 49.06697 | -8.62363 | 37241 ft | 498 kts | 102° |
| 2026-04-25 21:55 | 49.05602 | -8.51933 | 37239 ft | 498 kts | 102° |
| 2026-04-25 21:56 | 49.04495 | -8.41494 | 37241 ft | 499 kts | 102° |
| 2026-04-25 21:56 | 49.03380 | -8.31070 | 37236 ft | 499 kts | 102° |
| 2026-04-25 21:57 | 49.02255 | -8.20635 | 37235 ft | 499 kts | 102° |
| 2026-04-25 21:57 | 49.01128 | -8.10274 | 37234 ft | 499 kts | 102° |
| 2026-04-25 21:58 | 49.00090 | -7.99835 | 37235 ft | 500 kts | 97° |
| 2026-04-25 21:58 | 49.00039 | -7.89213 | 37244 ft | 502 kts | 90° |
| 2026-04-25 21:59 | 49.00229 | -7.78560 | 37242 ft | 503 kts | 90° |
| 2026-04-25 21:59 | 49.00348 | -7.67900 | 37243 ft | 503 kts | 91° |
| 2026-04-25 22:00 | 49.00064 | -7.52008 | 37230 ft | 501 kts | 103° |
| 2026-04-25 22:00 | 48.98002 | -7.41984 | 37240 ft | 495 kts | 119° |
| 2026-04-25 22:01 | 48.94830 | -7.32700 | 37246 ft | 495 kts | 121° |
| 2026-04-25 22:01 | 48.92157 | -7.24991 | 37241 ft | 496 kts | 120° |
| 2026-04-25 22:02 | 48.88425 | -7.14109 | 37237 ft | 497 kts | 120° |
| 2026-04-25 22:02 | 48.85240 | -7.04763 | 37226 ft | 498 kts | 120° |
| 2026-04-25 22:03 | 48.82058 | -6.95441 | 37232 ft | 498 kts | 119° |
| 2026-04-25 22:03 | 48.78853 | -6.86088 | 37240 ft | 499 kts | 120° |
| 2026-04-25 22:04 | 48.75641 | -6.76757 | 37233 ft | 500 kts | 120° |
| 2026-04-25 22:04 | 48.72410 | -6.67404 | 37230 ft | 501 kts | 120° |
| 2026-04-25 22:05 | 48.69175 | -6.58077 | 37234 ft | 501 kts | 120° |
| 2026-04-25 22:05 | 48.65950 | -6.48810 | 37232 ft | 501 kts | 120° |
| 2026-04-25 22:06 | 48.62698 | -6.39497 | 37228 ft | 501 kts | 120° |
| 2026-04-25 22:06 | 48.59437 | -6.30192 | 37249 ft | 501 kts | 120° |
| 2026-04-25 22:07 | 48.56699 | -6.22406 | 37224 ft | 501 kts | 120° |
| 2026-04-25 22:07 | 48.52895 | -6.11629 | 37227 ft | 500 kts | 120° |
| 2026-04-25 22:08 | 48.49616 | -6.02374 | 37225 ft | 500 kts | 120° |
| 2026-04-25 22:08 | 48.46323 | -5.93113 | 37236 ft | 500 kts | 119° |
| 2026-04-25 22:09 | 48.43031 | -5.83887 | 37229 ft | 500 kts | 120° |
| 2026-04-25 22:09 | 48.39734 | -5.74678 | 37229 ft | 500 kts | 120° |
| 2026-04-25 22:10 | 48.36420 | -5.65456 | 37231 ft | 500 kts | 120° |
| 2026-04-25 22:10 | 48.33099 | -5.56247 | 37211 ft | 501 kts | 120° |
| 2026-04-25 22:11 | 48.29791 | -5.47105 | 37223 ft | 501 kts | 120° |
| 2026-04-25 22:11 | 48.26455 | -5.37919 | 37226 ft | 501 kts | 120° |
| 2026-04-25 22:12 | 48.23107 | -5.28729 | 37219 ft | 502 kts | 120° |
| 2026-04-25 22:12 | 48.20295 | -5.21038 | 37222 ft | 502 kts | 120° |
| 2026-04-25 22:13 | 48.16385 | -5.10380 | 37221 ft | 502 kts | 119° |
| 2026-04-25 22:13 | 48.13010 | -5.01215 | 37214 ft | 503 kts | 120° |
| 2026-04-25 22:14 | 48.09620 | -4.92040 | 37207 ft | 503 kts | 119° |
| 2026-04-25 22:14 | 48.06228 | -4.82893 | 37212 ft | 503 kts | 120° |
| 2026-04-25 22:15 | 48.02827 | -4.73753 | 37198 ft | 503 kts | 120° |
| 2026-04-25 22:16 | 47.97702 | -4.60036 | 37204 ft | 503 kts | 120° |
| 2026-04-25 22:16 | 47.94304 | -4.50982 | 37197 ft | 503 kts | 120° |
| 2026-04-25 22:17 | 47.90880 | -4.41891 | 37196 ft | 503 kts | 120° |
| 2026-04-25 22:17 | 47.87448 | -4.32809 | 37205 ft | 502 kts | 120° |
| 2026-04-25 22:18 | 47.84018 | -4.23762 | 37213 ft | 502 kts | 120° |
| 2026-04-25 22:18 | 47.80578 | -4.14720 | 37178 ft | 501 kts | 119° |
| 2026-04-25 22:19 | 47.77134 | -4.05699 | 37183 ft | 501 kts | 120° |
| 2026-04-25 22:19 | 47.73684 | -3.96689 | 37176 ft | 501 kts | 120° |
| 2026-04-25 22:20 | 47.70818 | -3.89229 | 37175 ft | 500 kts | 120° |
| 2026-04-25 22:20 | 47.67364 | -3.80267 | 37175 ft | 500 kts | 120° |
| 2026-04-25 22:21 | 47.63901 | -3.71312 | 37174 ft | 500 kts | 120° |
| 2026-04-25 22:21 | 47.60453 | -3.62432 | 37098 ft | 496 kts | 120° |
| 2026-04-25 22:22 | 47.57019 | -3.53610 | 37172 ft | 495 kts | 120° |
| 2026-04-25 22:22 | 47.53552 | -3.44723 | 37175 ft | 501 kts | 120° |
| 2026-04-25 22:23 | 47.50070 | -3.35833 | 37181 ft | 504 kts | 120° |
| 2026-04-25 22:23 | 47.46537 | -3.26843 | 37181 ft | 506 kts | 120° |
| 2026-04-25 22:24 | 47.42985 | -3.17832 | 37178 ft | 507 kts | 120° |
| 2026-04-25 22:24 | 47.39695 | -3.08646 | 37164 ft | 506 kts | 111° |
| 2026-04-25 22:25 | 47.37234 | -2.98938 | 37173 ft | 503 kts | 109° |
| 2026-04-25 22:25 | 47.34810 | -2.89276 | 37181 ft | 502 kts | 109° |
| 2026-04-25 22:26 | 47.32371 | -2.79731 | 37181 ft | 499 kts | 109° |
| 2026-04-25 22:26 | 47.29897 | -2.70165 | 37177 ft | 498 kts | 109° |
| 2026-04-25 22:27 | 47.27422 | -2.60652 | 37179 ft | 495 kts | 109° |
| 2026-04-25 22:27 | 47.24964 | -2.51239 | 37183 ft | 495 kts | 109° |
| 2026-04-25 22:28 | 47.22488 | -2.41785 | 37189 ft | 495 kts | 109° |
| 2026-04-25 22:28 | 47.19996 | -2.32311 | 37186 ft | 496 kts | 109° |
| 2026-04-25 22:29 | 47.17492 | -2.22829 | 37186 ft | 497 kts | 110° |
| 2026-04-25 22:29 | 47.14980 | -2.13353 | 37179 ft | 498 kts | 110° |
| 2026-04-25 22:30 | 47.11193 | -1.99142 | 37191 ft | 499 kts | 110° |
| 2026-04-25 22:30 | 47.09087 | -1.91280 | 37185 ft | 499 kts | 110° |
| 2026-04-25 22:31 | 47.06120 | -1.80245 | 37184 ft | 499 kts | 110° |
| 2026-04-25 22:31 | 47.03566 | -1.70786 | 37182 ft | 498 kts | 110° |
| 2026-04-25 22:32 | 47.01011 | -1.61363 | 37192 ft | 498 kts | 110° |
| 2026-04-25 22:32 | 46.98450 | -1.51951 | 37178 ft | 497 kts | 111° |
| 2026-04-25 22:33 | 46.95882 | -1.42557 | 37192 ft | 496 kts | 111° |
| 2026-04-25 22:33 | 46.93311 | -1.33185 | 37197 ft | 495 kts | 111° |
| 2026-04-25 22:34 | 46.90754 | -1.23897 | 37196 ft | 495 kts | 111° |
| 2026-04-25 22:34 | 46.88171 | -1.14556 | 37186 ft | 495 kts | 111° |
| 2026-04-25 22:35 | 46.85579 | -1.05218 | 37188 ft | 495 kts | 111° |
| 2026-04-25 22:35 | 46.82990 | -0.95925 | 37185 ft | 495 kts | 111° |
| 2026-04-25 22:36 | 46.80380 | -0.86597 | 37184 ft | 495 kts | 111° |
| 2026-04-25 22:36 | 46.77766 | -0.77287 | 37171 ft | 496 kts | 112° |
| 2026-04-25 22:37 | 46.75145 | -0.67987 | 37177 ft | 496 kts | 112° |
| 2026-04-25 22:37 | 46.72529 | -0.58744 | 37169 ft | 496 kts | 112° |
| 2026-04-25 22:38 | 46.69889 | -0.49446 | 37185 ft | 496 kts | 112° |
| 2026-04-25 22:38 | 46.67240 | -0.40154 | 37163 ft | 497 kts | 112° |
| 2026-04-25 22:39 | 46.64586 | -0.30874 | 37160 ft | 497 kts | 112° |
| 2026-04-25 22:39 | 46.61709 | -0.21751 | 37159 ft | 497 kts | 120° |
| 2026-04-25 22:40 | 46.58192 | -0.13082 | 37158 ft | 497 kts | 121° |
| 2026-04-25 22:40 | 46.54658 | -0.04448 | 37175 ft | 497 kts | 120° |
| 2026-04-25 22:41 | 46.51146 | 0.04201 | 37174 ft | 497 kts | 120° |
| 2026-04-25 22:41 | 46.47667 | 0.12796 | 37178 ft | 496 kts | 120° |
| 2026-04-25 22:42 | 46.44167 | 0.21422 | 37178 ft | 496 kts | 120° |
| 2026-04-25 22:42 | 46.40659 | 0.30040 | 37180 ft | 496 kts | 120° |
| 2026-04-25 22:43 | 46.37151 | 0.38625 | 37161 ft | 495 kts | 120° |
| 2026-04-25 22:43 | 46.33634 | 0.47206 | 37159 ft | 495 kts | 120° |
| 2026-04-25 22:44 | 46.30113 | 0.55768 | 37160 ft | 495 kts | 120° |
| 2026-04-25 22:44 | 46.26580 | 0.64335 | 37167 ft | 495 kts | 121° |
| 2026-04-25 22:45 | 46.23056 | 0.72853 | 37169 ft | 496 kts | 121° |
| 2026-04-25 22:45 | 46.19494 | 0.81436 | 37177 ft | 496 kts | 121° |
| 2026-04-25 22:46 | 46.15943 | 0.89968 | 37162 ft | 496 kts | 121° |
| 2026-04-25 22:46 | 46.12406 | 0.98440 | 37171 ft | 496 kts | 121° |
| 2026-04-25 22:47 | 46.08833 | 1.06970 | 37172 ft | 496 kts | 121° |
| 2026-04-25 22:47 | 46.05275 | 1.15441 | 37176 ft | 496 kts | 121° |
| 2026-04-25 22:48 | 46.01696 | 1.23938 | 37181 ft | 496 kts | 122° |
| 2026-04-25 22:48 | 45.98112 | 1.32423 | 37184 ft | 496 kts | 122° |
| 2026-04-25 22:49 | 45.96525 | 1.36802 | 37180 ft | 495 kts | 111° |
| 2026-04-25 22:49 | 45.95531 | 1.41552 | 37186 ft | 495 kts | 101° |
| 2026-04-25 22:49 | 45.95180 | 1.51373 | 37171 ft | 493 kts | 85° |
| 2026-04-25 22:50 | 45.95667 | 1.61214 | 37186 ft | 495 kts | 85° |
| 2026-04-25 22:50 | 45.96112 | 1.71107 | 37181 ft | 497 kts | 86° |
| 2026-04-25 22:51 | 45.96499 | 1.81024 | 37179 ft | 498 kts | 86° |
| 2026-04-25 22:51 | 45.96861 | 1.90988 | 37171 ft | 499 kts | 87° |
| 2026-04-25 22:52 | 45.97214 | 2.00892 | 37164 ft | 499 kts | 87° |
| 2026-04-25 22:52 | 45.97506 | 2.09236 | 37172 ft | 499 kts | 87° |
| 2026-04-25 22:53 | 45.97904 | 2.20834 | 37171 ft | 499 kts | 87° |
| 2026-04-25 22:53 | 45.98236 | 2.30788 | 37166 ft | 498 kts | 87° |
| 2026-04-25 22:54 | 45.98559 | 2.40735 | 37165 ft | 498 kts | 88° |
| 2026-04-25 22:54 | 45.98873 | 2.50674 | 37166 ft | 497 kts | 88° |
| 2026-04-25 22:55 | 45.99178 | 2.60589 | 37171 ft | 496 kts | 88° |
| 2026-04-25 22:55 | 45.99475 | 2.70506 | 37158 ft | 496 kts | 88° |
| 2026-04-25 22:56 | 45.99609 | 2.80404 | 37151 ft | 495 kts | 94° |
| 2026-04-25 22:56 | 45.98605 | 2.90188 | 37184 ft | 493 kts | 104° |
| 2026-04-25 22:57 | 45.97054 | 2.99725 | 37172 ft | 494 kts | 104° |
| 2026-04-25 22:57 | 45.95511 | 3.09348 | 37165 ft | 494 kts | 104° |
| 2026-04-25 22:58 | 45.93992 | 3.18991 | 37166 ft | 494 kts | 104° |
| 2026-04-25 22:58 | 45.92473 | 3.28630 | 37153 ft | 495 kts | 104° |
| 2026-04-25 22:59 | 45.90944 | 3.38258 | 37165 ft | 494 kts | 104° |
| 2026-04-25 22:59 | 45.89408 | 3.47879 | 37158 ft | 494 kts | 104° |
| 2026-04-25 23:00 | 45.87866 | 3.57494 | 37165 ft | 494 kts | 104° |
| 2026-04-25 23:00 | 45.86371 | 3.67119 | 37166 ft | 494 kts | 103° |
| 2026-04-25 23:01 | 45.84890 | 3.76734 | 37166 ft | 494 kts | 103° |
| 2026-04-25 23:01 | 45.83396 | 3.86348 | 37169 ft | 493 kts | 103° |
| 2026-04-25 23:02 | 45.81891 | 3.95935 | 37146 ft | 493 kts | 103° |
| 2026-04-25 23:02 | 45.80380 | 4.05497 | 37168 ft | 493 kts | 103° |
| 2026-04-25 23:03 | 45.78857 | 4.15078 | 37164 ft | 494 kts | 104° |
| 2026-04-25 23:03 | 45.77323 | 4.24673 | 37167 ft | 494 kts | 104° |
| 2026-04-25 23:04 | 45.75735 | 4.32508 | 37156 ft | 492 kts | 112° |
| 2026-04-25 23:04 | 45.72787 | 4.43180 | 37163 ft | 493 kts | 112° |
| 2026-04-25 23:05 | 45.70254 | 4.52306 | 37158 ft | 494 kts | 112° |
| 2026-04-25 23:05 | 45.68169 | 4.59909 | 37146 ft | 494 kts | 112° |
| 2026-04-25 23:06 | 45.65666 | 4.69071 | 37155 ft | 494 kts | 112° |
| 2026-04-25 23:06 | 45.62755 | 4.79701 | 37151 ft | 494 kts | 112° |
| 2026-04-25 23:07 | 45.60645 | 4.87367 | 37140 ft | 494 kts | 112° |
| 2026-04-25 23:07 | 45.57715 | 4.97968 | 37140 ft | 494 kts | 112° |
| 2026-04-25 23:08 | 45.55594 | 5.05615 | 37135 ft | 494 kts | 112° |
| 2026-04-25 23:08 | 45.53061 | 5.14711 | 37133 ft | 493 kts | 112° |
| 2026-04-25 23:09 | 45.50521 | 5.23804 | 37130 ft | 492 kts | 112° |
| 2026-04-25 23:09 | 45.47998 | 5.32800 | 37132 ft | 492 kts | 112° |
| 2026-04-25 23:10 | 45.45452 | 5.41844 | 37135 ft | 491 kts | 112° |
| 2026-04-25 23:10 | 45.42905 | 5.50858 | 37126 ft | 491 kts | 112° |
| 2026-04-25 23:11 | 45.40352 | 5.59859 | 37134 ft | 490 kts | 112° |
| 2026-04-25 23:11 | 45.37789 | 5.68866 | 37129 ft | 491 kts | 112° |
| 2026-04-25 23:12 | 45.35220 | 5.77858 | 37134 ft | 491 kts | 112° |
| 2026-04-25 23:12 | 45.32640 | 5.86856 | 37142 ft | 491 kts | 113° |
| 2026-04-25 23:13 | 45.30059 | 5.95828 | 37140 ft | 491 kts | 113° |
| 2026-04-25 23:13 | 45.27467 | 6.04800 | 37144 ft | 491 kts | 113° |
| 2026-04-25 23:14 | 45.24882 | 6.13720 | 37140 ft | 491 kts | 113° |
| 2026-04-25 23:14 | 45.22276 | 6.22679 | 37145 ft | 491 kts | 113° |
| 2026-04-25 23:15 | 45.19661 | 6.31636 | 37145 ft | 491 kts | 113° |
| 2026-04-25 23:15 | 45.17039 | 6.40590 | 37142 ft | 491 kts | 113° |
| 2026-04-25 23:16 | 45.14412 | 6.49528 | 37151 ft | 491 kts | 113° |
| 2026-04-25 23:16 | 45.11780 | 6.58458 | 37143 ft | 491 kts | 112° |
| 2026-04-25 23:17 | 45.09521 | 6.67558 | 37139 ft | 490 kts | 108° |
| 2026-04-25 23:17 | 45.07387 | 6.76723 | 37139 ft | 490 kts | 109° |
| 2026-04-25 23:18 | 45.05232 | 6.85853 | 37138 ft | 490 kts | 109° |
| 2026-04-25 23:18 | 45.03064 | 6.94931 | 37137 ft | 490 kts | 109° |
| 2026-04-25 23:19 | 45.00877 | 7.04056 | 37154 ft | 489 kts | 109° |
| 2026-04-25 23:19 | 44.98856 | 7.13226 | 37087 ft | 489 kts | 102° |
| 2026-04-25 23:20 | 44.97983 | 7.22735 | 37078 ft | 489 kts | 91° |
| 2026-04-25 23:20 | 44.98115 | 7.32338 | 37079 ft | 489 kts | 88° |
| 2026-04-25 23:21 | 44.97945 | 7.37063 | 37059 ft | 487 kts | 101° |
| 2026-04-25 23:21 | 44.96945 | 7.41677 | 37070 ft | 486 kts | 115° |
| 2026-04-25 23:21 | 44.95269 | 7.45798 | 37076 ft | 485 kts | 128° |
| 2026-04-25 23:21 | 44.93108 | 7.49342 | 37062 ft | 482 kts | 133° |
| 2026-04-25 23:22 | 44.88610 | 7.56394 | 37073 ft | 485 kts | 132° |
| 2026-04-25 23:23 | 44.81884 | 7.67175 | 37079 ft | 490 kts | 132° |
| 2026-04-25 23:23 | 44.77388 | 7.74420 | 37076 ft | 492 kts | 132° |
| 2026-04-25 23:24 | 44.72879 | 7.81671 | 37076 ft | 493 kts | 132° |
| 2026-04-25 23:24 | 44.68351 | 7.88927 | 37067 ft | 493 kts | 132° |
| 2026-04-25 23:25 | 44.63828 | 7.96155 | 37073 ft | 493 kts | 132° |
| 2026-04-25 23:25 | 44.59321 | 8.03338 | 37074 ft | 492 kts | 132° |
| 2026-04-25 23:26 | 44.54801 | 8.10523 | 37109 ft | 490 kts | 132° |
| 2026-04-25 23:26 | 44.50302 | 8.17675 | 37268 ft | 487 kts | 132° |
| 2026-04-25 23:27 | 44.45835 | 8.24802 | 37346 ft | 487 kts | 131° |
| 2026-04-25 23:27 | 44.41384 | 8.31941 | 37399 ft | 486 kts | 131° |
| 2026-04-25 23:28 | 44.36959 | 8.39095 | 37533 ft | 487 kts | 131° |
| 2026-04-25 23:28 | 44.32561 | 8.46288 | 37664 ft | 487 kts | 131° |
| 2026-04-25 23:29 | 44.28188 | 8.53522 | 37819 ft | 487 kts | 130° |
| 2026-04-25 23:29 | 44.26012 | 8.57138 | 37922 ft | 486 kts | 130° |
| 2026-04-25 23:29 | 44.23876 | 8.60695 | 38016 ft | 486 kts | 130° |
| 2026-04-25 23:29 | 44.21694 | 8.64328 | 38119 ft | 486 kts | 130° |
| 2026-04-25 23:30 | 44.19525 | 8.67939 | 38202 ft | 486 kts | 130° |
| 2026-04-25 23:30 | 44.15088 | 8.75093 | 37983 ft | 493 kts | 136° |
| 2026-04-25 23:30 | 44.12590 | 8.78370 | 37717 ft | 498 kts | 138° |
| 2026-04-25 23:31 | 44.10033 | 8.81623 | 37426 ft | 493 kts | 137° |
| 2026-04-25 23:31 | 44.07571 | 8.84900 | 37302 ft | 487 kts | 136° |
| 2026-04-25 23:31 | 44.05194 | 8.88259 | 37214 ft | 487 kts | 134° |
| 2026-04-25 23:32 | 44.00596 | 8.95182 | 37134 ft | 487 kts | 132° |
| 2026-04-25 23:32 | 43.96075 | 9.02194 | 37122 ft | 487 kts | 132° |
| 2026-04-25 23:33 | 43.91548 | 9.09196 | 37132 ft | 487 kts | 132° |
| 2026-04-25 23:33 | 43.87004 | 9.16167 | 37130 ft | 488 kts | 133° |
| 2026-04-25 23:34 | 43.82460 | 9.23107 | 37131 ft | 490 kts | 133° |
| 2026-04-25 23:34 | 43.77873 | 9.30095 | 37130 ft | 491 kts | 133° |
| 2026-04-25 23:35 | 43.73267 | 9.37096 | 37137 ft | 492 kts | 133° |
| 2026-04-25 23:35 | 43.68649 | 9.44098 | 37130 ft | 493 kts | 133° |
| 2026-04-25 23:36 | 43.64018 | 9.51103 | 37138 ft | 494 kts | 133° |
| 2026-04-25 23:36 | 43.59384 | 9.58095 | 37130 ft | 494 kts | 133° |
| 2026-04-25 23:37 | 43.54744 | 9.65081 | 37132 ft | 493 kts | 133° |
| 2026-04-25 23:37 | 43.50135 | 9.72001 | 37133 ft | 493 kts | 133° |
| 2026-04-25 23:38 | 43.45471 | 9.78989 | 37134 ft | 492 kts | 133° |
| 2026-04-25 23:38 | 43.40991 | 9.85688 | 37129 ft | 492 kts | 133° |
| 2026-04-25 23:39 | 43.36371 | 9.92615 | 37133 ft | 491 kts | 132° |
| 2026-04-25 23:39 | 43.31890 | 9.99704 | 37130 ft | 491 kts | 131° |
| 2026-04-25 23:40 | 43.27452 | 10.06835 | 37132 ft | 491 kts | 131° |
| 2026-04-25 23:40 | 43.22990 | 10.13949 | 37130 ft | 491 kts | 131° |
| 2026-04-25 23:41 | 43.18506 | 10.21040 | 37132 ft | 492 kts | 131° |
| 2026-04-25 23:41 | 43.14022 | 10.28100 | 37124 ft | 491 kts | 131° |
| 2026-04-25 23:42 | 43.09521 | 10.35169 | 37129 ft | 491 kts | 131° |
| 2026-04-25 23:42 | 43.05063 | 10.42157 | 37129 ft | 490 kts | 131° |
| 2026-04-25 23:43 | 43.00568 | 10.49186 | 37126 ft | 490 kts | 131° |
| 2026-04-25 23:43 | 42.96076 | 10.56194 | 37127 ft | 490 kts | 131° |
| 2026-04-25 23:44 | 42.91583 | 10.63185 | 37128 ft | 490 kts | 131° |
| 2026-04-25 23:44 | 42.87084 | 10.70171 | 37119 ft | 489 kts | 131° |
| 2026-04-25 23:45 | 42.82585 | 10.77138 | 37120 ft | 489 kts | 131° |
| 2026-04-25 23:45 | 42.78086 | 10.84090 | 37114 ft | 489 kts | 132° |
| 2026-04-25 23:46 | 42.73612 | 10.90986 | 37106 ft | 489 kts | 132° |
| 2026-04-25 23:46 | 42.69107 | 10.97914 | 37101 ft | 488 kts | 131° |
| 2026-04-25 23:47 | 42.64604 | 11.04823 | 37103 ft | 488 kts | 132° |
| 2026-04-25 23:47 | 42.60104 | 11.11709 | 37115 ft | 488 kts | 132° |
| 2026-04-25 23:48 | 42.55597 | 11.18591 | 37121 ft | 487 kts | 132° |
| 2026-04-25 23:48 | 42.51085 | 11.25464 | 37131 ft | 487 kts | 132° |
| 2026-04-25 23:49 | 42.46567 | 11.32330 | 37129 ft | 487 kts | 132° |
| 2026-04-25 23:49 | 42.42083 | 11.39127 | 37126 ft | 487 kts | 132° |
| 2026-04-25 23:50 | 42.37568 | 11.45957 | 37124 ft | 486 kts | 132° |
| 2026-04-25 23:50 | 42.33054 | 11.52770 | 37126 ft | 486 kts | 132° |
| 2026-04-25 23:51 | 42.28542 | 11.59563 | 37128 ft | 485 kts | 132° |
| 2026-04-25 23:51 | 42.24031 | 11.66339 | 37120 ft | 485 kts | 132° |
| 2026-04-25 23:52 | 42.19538 | 11.73073 | 37126 ft | 485 kts | 132° |
| 2026-04-25 23:52 | 42.15014 | 11.79836 | 37129 ft | 485 kts | 132° |
| 2026-04-25 23:53 | 42.11229 | 11.85484 | 37162 ft | 485 kts | 132° |
| 2026-04-25 23:53 | 42.06733 | 11.92179 | 37183 ft | 485 kts | 132° |
| 2026-04-25 23:54 | 42.02436 | 11.98561 | 37212 ft | 485 kts | 132° |
| 2026-04-25 23:54 | 41.97908 | 12.05272 | 37242 ft | 485 kts | 133° |
| 2026-04-25 23:55 | 41.93372 | 12.11982 | 37240 ft | 484 kts | 132° |
| 2026-04-25 23:55 | 41.88842 | 12.18666 | 37240 ft | 484 kts | 133° |
| 2026-04-25 23:55 | 41.86576 | 12.22004 | 37132 ft | 483 kts | 133° |
| 2026-04-25 23:56 | 41.84306 | 12.25343 | 37131 ft | 483 kts | 133° |
| 2026-04-25 23:56 | 41.79777 | 12.31995 | 37130 ft | 483 kts | 133° |
| 2026-04-25 23:57 | 41.75273 | 12.38597 | 37108 ft | 483 kts | 133° |
| 2026-04-25 23:57 | 41.70737 | 12.45229 | 37110 ft | 482 kts | 133° |
| 2026-04-25 23:58 | 41.66201 | 12.51847 | 37103 ft | 482 kts | 133° |
| 2026-04-25 23:58 | 41.61664 | 12.58451 | 37104 ft | 482 kts | 133° |
| 2026-04-25 23:59 | 41.57127 | 12.65041 | 37106 ft | 482 kts | 133° |
| 2026-04-25 23:59 | 41.52583 | 12.71626 | 37109 ft | 482 kts | 133° |
| 2026-04-26 00:00 | 41.48039 | 12.78196 | 37127 ft | 482 kts | 133° |
| 2026-04-26 00:00 | 41.43515 | 12.84724 | 37116 ft | 481 kts | 133° |
| 2026-04-26 00:01 | 41.38964 | 12.91275 | 37119 ft | 481 kts | 133° |
| 2026-04-26 00:01 | 41.34406 | 12.97822 | 37118 ft | 481 kts | 133° |
| 2026-04-26 00:02 | 41.29846 | 13.04358 | 37118 ft | 481 kts | 133° |
| 2026-04-26 00:02 | 41.25316 | 13.10835 | 37120 ft | 481 kts | 133° |
| 2026-04-26 00:03 | 41.20755 | 13.17344 | 37120 ft | 481 kts | 133° |
| 2026-04-26 00:03 | 41.16192 | 13.23840 | 37122 ft | 481 kts | 133° |
| 2026-04-26 00:04 | 41.11619 | 13.30337 | 37121 ft | 481 kts | 134° |
| 2026-04-26 00:04 | 41.07047 | 13.36818 | 37117 ft | 482 kts | 134° |
| 2026-04-26 00:05 | 41.02464 | 13.43300 | 37119 ft | 482 kts | 134° |
| 2026-04-26 00:05 | 40.97878 | 13.49773 | 37122 ft | 482 kts | 134° |
| 2026-04-26 00:06 | 40.93291 | 13.56233 | 37117 ft | 481 kts | 134° |
| 2026-04-26 00:06 | 40.88732 | 13.62640 | 37122 ft | 481 kts | 134° |
| 2026-04-26 00:07 | 40.84142 | 13.69075 | 37118 ft | 481 kts | 134° |
| 2026-04-26 00:07 | 40.79550 | 13.75502 | 37119 ft | 481 kts | 134° |
| 2026-04-26 00:08 | 40.74958 | 13.81912 | 37120 ft | 481 kts | 134° |
| 2026-04-26 00:08 | 40.70361 | 13.88316 | 37130 ft | 480 kts | 134° |
| 2026-04-26 00:09 | 40.65769 | 13.94700 | 37122 ft | 480 kts | 134° |
| 2026-04-26 00:09 | 40.61175 | 14.01073 | 37125 ft | 479 kts | 134° |
| 2026-04-26 00:10 | 40.56576 | 14.07439 | 37123 ft | 479 kts | 134° |
| 2026-04-26 00:10 | 40.51984 | 14.13783 | 37123 ft | 478 kts | 134° |
| 2026-04-26 00:11 | 40.47424 | 14.20068 | 37123 ft | 478 kts | 134° |
| 2026-04-26 00:11 | 40.42833 | 14.26383 | 37129 ft | 477 kts | 134° |
| 2026-04-26 00:12 | 40.38247 | 14.32678 | 37122 ft | 477 kts | 134° |
| 2026-04-26 00:12 | 40.33660 | 14.38961 | 37129 ft | 477 kts | 134° |
| 2026-04-26 00:13 | 40.29069 | 14.45235 | 37129 ft | 476 kts | 134° |
| 2026-04-26 00:13 | 40.24481 | 14.51494 | 37129 ft | 476 kts | 134° |
| 2026-04-26 00:14 | 40.19888 | 14.57746 | 37128 ft | 476 kts | 134° |
| 2026-04-26 00:14 | 40.15289 | 14.63991 | 37133 ft | 477 kts | 135° |
| 2026-04-26 00:15 | 40.10686 | 14.70232 | 37139 ft | 477 kts | 135° |
| 2026-04-26 00:15 | 40.06076 | 14.76467 | 37132 ft | 478 kts | 135° |
| 2026-04-26 00:16 | 40.01449 | 14.82712 | 37133 ft | 478 kts | 135° |
| 2026-04-26 00:16 | 39.96847 | 14.88912 | 37132 ft | 479 kts | 135° |
| 2026-04-26 00:17 | 39.92206 | 14.95151 | 37137 ft | 479 kts | 135° |
| 2026-04-26 00:17 | 39.87562 | 15.01380 | 37138 ft | 479 kts | 135° |
| 2026-04-26 00:18 | 39.82926 | 15.07586 | 37139 ft | 478 kts | 135° |
| 2026-04-26 00:18 | 39.78287 | 15.13784 | 37137 ft | 478 kts | 135° |
| 2026-04-26 00:19 | 39.73650 | 15.19965 | 37137 ft | 477 kts | 135° |
| 2026-04-26 00:19 | 39.69011 | 15.26138 | 37143 ft | 477 kts | 135° |
| 2026-04-26 00:20 | 39.64401 | 15.32259 | 37153 ft | 476 kts | 135° |
| 2026-04-26 00:20 | 39.59766 | 15.38401 | 37141 ft | 476 kts | 135° |
| 2026-04-26 00:21 | 39.55132 | 15.44529 | 37144 ft | 475 kts | 135° |
| 2026-04-26 00:21 | 39.50503 | 15.50638 | 37153 ft | 474 kts | 135° |
| 2026-04-26 00:22 | 39.45877 | 15.56731 | 37144 ft | 474 kts | 135° |
| 2026-04-26 00:22 | 39.41253 | 15.62809 | 37141 ft | 474 kts | 135° |
| 2026-04-26 00:23 | 39.36630 | 15.68876 | 37147 ft | 474 kts | 134° |
| 2026-04-26 00:23 | 39.32004 | 15.74934 | 37146 ft | 473 kts | 134° |
| 2026-04-26 00:24 | 39.27410 | 15.80974 | 37152 ft | 473 kts | 133° |
| 2026-04-26 00:24 | 39.23004 | 15.87310 | 37157 ft | 473 kts | 131° |
| 2026-04-26 00:25 | 39.18649 | 15.93679 | 37162 ft | 474 kts | 131° |
| 2026-04-26 00:25 | 39.14278 | 16.00042 | 37155 ft | 474 kts | 131° |
| 2026-04-26 00:26 | 39.09885 | 16.06398 | 37144 ft | 475 kts | 131° |
| 2026-04-26 00:26 | 39.05488 | 16.12736 | 37140 ft | 475 kts | 131° |
| 2026-04-26 00:27 | 39.01088 | 16.19066 | 37132 ft | 475 kts | 131° |
| 2026-04-26 00:27 | 38.96677 | 16.25399 | 37132 ft | 475 kts | 131° |
| 2026-04-26 00:28 | 38.92288 | 16.31689 | 37134 ft | 475 kts | 131° |
| 2026-04-26 00:28 | 38.87872 | 16.38004 | 37133 ft | 475 kts | 130° |
| 2026-04-26 00:29 | 38.83443 | 16.44326 | 37130 ft | 476 kts | 131° |
| 2026-04-26 00:29 | 38.79007 | 16.50645 | 37123 ft | 476 kts | 131° |
| 2026-04-26 00:30 | 38.74570 | 16.56952 | 37126 ft | 477 kts | 130° |
| 2026-04-26 00:30 | 38.70123 | 16.63262 | 37104 ft | 477 kts | 131° |
| 2026-04-26 00:31 | 38.65668 | 16.69570 | 37102 ft | 477 kts | 131° |
| 2026-04-26 00:31 | 38.61232 | 16.75836 | 37101 ft | 478 kts | 130° |
| 2026-04-26 00:32 | 38.56767 | 16.82134 | 37080 ft | 478 kts | 131° |
| 2026-04-26 00:32 | 38.50051 | 16.91581 | 37081 ft | 479 kts | 131° |
| 2026-04-26 00:33 | 38.45568 | 16.97871 | 37080 ft | 479 kts | 131° |
| 2026-04-26 00:33 | 38.41080 | 17.04155 | 37079 ft | 479 kts | 131° |
| 2026-04-26 00:34 | 38.36583 | 17.10441 | 37078 ft | 480 kts | 131° |
| 2026-04-26 00:34 | 38.32107 | 17.16684 | 37070 ft | 480 kts | 131° |
| 2026-04-26 00:35 | 38.27603 | 17.22955 | 37069 ft | 480 kts | 131° |
| 2026-04-26 00:35 | 38.23089 | 17.29226 | 37077 ft | 481 kts | 131° |
| 2026-04-26 00:36 | 38.18564 | 17.35501 | 37073 ft | 481 kts | 131° |
| 2026-04-26 00:36 | 38.14036 | 17.41766 | 37080 ft | 481 kts | 130° |
| 2026-04-26 00:37 | 38.09502 | 17.48028 | 37076 ft | 482 kts | 131° |
| 2026-04-26 00:37 | 38.04963 | 17.54284 | 37078 ft | 482 kts | 131° |
| 2026-04-26 00:38 | 38.00413 | 17.60544 | 37071 ft | 483 kts | 131° |
| 2026-04-26 00:38 | 37.95856 | 17.66800 | 37075 ft | 483 kts | 131° |
| 2026-04-26 00:39 | 37.92063 | 17.71999 | 37076 ft | 483 kts | 131° |
| 2026-04-26 00:39 | 37.87499 | 17.78242 | 37080 ft | 484 kts | 130° |
| 2026-04-26 00:40 | 37.82919 | 17.84497 | 37074 ft | 484 kts | 130° |
| 2026-04-26 00:40 | 37.78335 | 17.90743 | 37074 ft | 485 kts | 130° |
| 2026-04-26 00:41 | 37.73739 | 17.96994 | 37074 ft | 485 kts | 131° |
| 2026-04-26 00:41 | 37.69137 | 18.03239 | 37071 ft | 485 kts | 130° |
| 2026-04-26 00:42 | 37.64534 | 18.09476 | 37078 ft | 486 kts | 131° |
| 2026-04-26 00:42 | 37.59917 | 18.15718 | 37077 ft | 486 kts | 131° |
| 2026-04-26 00:43 | 37.55325 | 18.21915 | 37072 ft | 487 kts | 131° |
| 2026-04-26 00:43 | 37.50692 | 18.28155 | 37071 ft | 487 kts | 131° |
| 2026-04-26 00:44 | 37.46058 | 18.34383 | 37074 ft | 487 kts | 131° |
| 2026-04-26 00:44 | 37.41422 | 18.40603 | 37067 ft | 487 kts | 131° |
| 2026-04-26 00:45 | 37.36811 | 18.46777 | 37082 ft | 488 kts | 131° |
| 2026-04-26 00:45 | 37.32150 | 18.53007 | 37082 ft | 489 kts | 131° |
| 2026-04-26 00:46 | 37.27490 | 18.59222 | 37072 ft | 489 kts | 131° |
| 2026-04-26 00:46 | 37.22817 | 18.65444 | 37077 ft | 490 kts | 131° |
| 2026-04-26 00:47 | 37.18126 | 18.71676 | 37074 ft | 490 kts | 131° |
| 2026-04-26 00:47 | 37.13470 | 18.77852 | 37092 ft | 490 kts | 131° |
| 2026-04-26 00:48 | 37.08770 | 18.84073 | 37082 ft | 491 kts | 131° |
| 2026-04-26 00:48 | 37.04066 | 18.90289 | 37073 ft | 492 kts | 131° |
| 2026-04-26 00:49 | 36.99345 | 18.96515 | 37073 ft | 493 kts | 131° |
| 2026-04-26 00:49 | 36.95015 | 19.03108 | 37066 ft | 489 kts | 120° |
| 2026-04-26 00:50 | 36.91428 | 19.10318 | 37077 ft | 488 kts | 119° |
| 2026-04-26 00:50 | 36.87840 | 19.17537 | 37067 ft | 489 kts | 119° |
| 2026-04-26 00:51 | 36.84246 | 19.24685 | 37068 ft | 489 kts | 119° |
| 2026-04-26 00:51 | 36.80607 | 19.31871 | 37067 ft | 489 kts | 119° |
| 2026-04-26 00:52 | 36.76962 | 19.39045 | 37060 ft | 489 kts | 120° |
| 2026-04-26 00:52 | 36.73310 | 19.46221 | 37078 ft | 489 kts | 120° |
| 2026-04-26 00:53 | 36.69655 | 19.53387 | 37065 ft | 490 kts | 120° |
| 2026-04-26 00:53 | 36.65997 | 19.60547 | 37066 ft | 489 kts | 120° |
| 2026-04-26 00:54 | 36.62337 | 19.67696 | 37059 ft | 489 kts | 120° |
| 2026-04-26 00:54 | 36.58700 | 19.74784 | 37060 ft | 489 kts | 120° |
| 2026-04-26 00:55 | 36.55039 | 19.81904 | 37074 ft | 489 kts | 120° |
| 2026-04-26 00:55 | 36.51364 | 19.89036 | 37064 ft | 489 kts | 120° |
| 2026-04-26 00:56 | 36.47684 | 19.96163 | 37051 ft | 489 kts | 120° |
| 2026-04-26 00:56 | 36.44025 | 20.03234 | 37053 ft | 489 kts | 120° |
| 2026-04-26 00:57 | 36.40340 | 20.10341 | 37049 ft | 489 kts | 120° |
| 2026-04-26 00:57 | 36.36648 | 20.17448 | 37062 ft | 490 kts | 120° |
| 2026-04-26 00:58 | 36.32945 | 20.24558 | 37049 ft | 491 kts | 120° |
| 2026-04-26 00:58 | 36.29229 | 20.31680 | 37047 ft | 491 kts | 120° |
| 2026-04-26 00:59 | 36.25512 | 20.38789 | 37043 ft | 492 kts | 120° |
| 2026-04-26 00:59 | 36.21784 | 20.45903 | 37044 ft | 492 kts | 120° |
| 2026-04-26 01:00 | 36.18052 | 20.53012 | 37044 ft | 492 kts | 120° |
| 2026-04-26 01:00 | 36.14312 | 20.60120 | 37043 ft | 492 kts | 120° |
| 2026-04-26 01:01 | 36.10574 | 20.67211 | 37032 ft | 493 kts | 120° |
| 2026-04-26 01:01 | 36.06842 | 20.74273 | 37037 ft | 493 kts | 120° |
| 2026-04-26 01:02 | 36.03083 | 20.81373 | 37056 ft | 493 kts | 120° |
| 2026-04-26 01:02 | 35.99314 | 20.88477 | 37036 ft | 494 kts | 120° |
| 2026-04-26 01:03 | 35.95545 | 20.95567 | 37033 ft | 494 kts | 121° |
| 2026-04-26 01:03 | 35.91769 | 21.02656 | 37030 ft | 494 kts | 121° |
| 2026-04-26 01:04 | 35.87984 | 21.09747 | 37033 ft | 494 kts | 121° |
| 2026-04-26 01:04 | 35.84216 | 21.16790 | 37036 ft | 495 kts | 121° |
| 2026-04-26 01:05 | 35.80417 | 21.23878 | 37027 ft | 495 kts | 121° |
| 2026-04-26 01:05 | 35.76615 | 21.30957 | 37028 ft | 496 kts | 121° |
| 2026-04-26 01:06 | 35.72804 | 21.38039 | 37025 ft | 496 kts | 121° |
| 2026-04-26 01:06 | 35.69012 | 21.45071 | 37022 ft | 497 kts | 121° |
| 2026-04-26 01:07 | 35.65183 | 21.52155 | 37023 ft | 497 kts | 121° |
| 2026-04-26 01:07 | 35.61347 | 21.59240 | 37023 ft | 497 kts | 121° |
| 2026-04-26 01:08 | 35.57507 | 21.66316 | 37023 ft | 498 kts | 121° |
| 2026-04-26 01:08 | 35.53664 | 21.73383 | 37021 ft | 498 kts | 121° |
| 2026-04-26 01:09 | 35.49810 | 21.80458 | 37026 ft | 498 kts | 122° |
| 2026-04-26 01:09 | 35.45952 | 21.87526 | 37015 ft | 498 kts | 122° |
| 2026-04-26 01:10 | 35.42111 | 21.94546 | 37012 ft | 498 kts | 122° |
| 2026-04-26 01:10 | 35.38240 | 22.01610 | 37007 ft | 499 kts | 122° |
| 2026-04-26 01:11 | 35.34361 | 22.08672 | 37009 ft | 499 kts | 122° |
| 2026-04-26 01:11 | 35.30474 | 22.15735 | 37015 ft | 500 kts | 123° |
| 2026-04-26 01:12 | 35.26577 | 22.22801 | 37011 ft | 501 kts | 123° |
| 2026-04-26 01:12 | 35.22673 | 22.29866 | 37004 ft | 501 kts | 123° |
| 2026-04-26 01:13 | 35.18783 | 22.36892 | 37000 ft | 502 kts | 123° |
| 2026-04-26 01:13 | 35.14868 | 22.43948 | 37001 ft | 502 kts | 123° |
| 2026-04-26 01:14 | 35.10947 | 22.51003 | 36997 ft | 502 kts | 123° |
| 2026-04-26 01:14 | 35.07019 | 22.58055 | 36994 ft | 503 kts | 123° |
| 2026-04-26 01:15 | 35.03077 | 22.65118 | 36980 ft | 503 kts | 123° |
| 2026-04-26 01:15 | 34.99125 | 22.72184 | 36989 ft | 504 kts | 123° |
| 2026-04-26 01:16 | 34.95158 | 22.79261 | 36998 ft | 506 kts | 123° |
| 2026-04-26 01:16 | 34.91168 | 22.86368 | 36979 ft | 508 kts | 124° |
| 2026-04-26 01:17 | 34.87164 | 22.93484 | 36982 ft | 509 kts | 123° |
| 2026-04-26 01:17 | 34.83178 | 23.00555 | 36962 ft | 509 kts | 123° |
| 2026-04-26 01:18 | 34.79169 | 23.07652 | 36961 ft | 508 kts | 123° |
| 2026-04-26 01:18 | 34.75163 | 23.14728 | 36975 ft | 507 kts | 124° |
| 2026-04-26 01:19 | 34.71149 | 23.21806 | 36942 ft | 509 kts | 124° |
| 2026-04-26 01:19 | 34.67120 | 23.28897 | 36958 ft | 510 kts | 124° |
| 2026-04-26 01:20 | 34.63074 | 23.36002 | 36960 ft | 512 kts | 124° |
| 2026-04-26 01:20 | 34.59005 | 23.43133 | 36939 ft | 515 kts | 125° |
| 2026-04-26 01:21 | 34.54921 | 23.50278 | 36932 ft | 515 kts | 125° |
| 2026-04-26 01:21 | 34.50831 | 23.57415 | 36958 ft | 515 kts | 125° |
| 2026-04-26 01:22 | 34.46740 | 23.64544 | 36924 ft | 515 kts | 125° |
| 2026-04-26 01:22 | 34.42651 | 23.71654 | 36947 ft | 514 kts | 125° |
| 2026-04-26 01:23 | 34.38558 | 23.78757 | 36948 ft | 513 kts | 125° |
| 2026-04-26 01:23 | 34.34472 | 23.85835 | 36930 ft | 512 kts | 125° |
| 2026-04-26 01:24 | 34.30416 | 23.92846 | 36914 ft | 511 kts | 126° |
| 2026-04-26 01:24 | 34.26336 | 23.99885 | 36940 ft | 512 kts | 126° |
| 2026-04-26 01:25 | 34.22906 | 24.05791 | 36931 ft | 512 kts | 126° |
| 2026-04-26 01:25 | 34.18803 | 24.12844 | 36916 ft | 514 kts | 126° |
| 2026-04-26 01:26 | 34.14708 | 24.19869 | 36908 ft | 515 kts | 126° |
| 2026-04-26 01:26 | 34.10571 | 24.26954 | 36905 ft | 517 kts | 126° |
| 2026-04-26 01:27 | 34.06426 | 24.34042 | 36908 ft | 517 kts | 126° |
| 2026-04-26 01:27 | 34.02265 | 24.41139 | 36932 ft | 518 kts | 127° |
| 2026-04-26 01:28 | 33.97616 | 24.47727 | 36905 ft | 515 kts | 139° |
| 2026-04-26 01:28 | 33.92259 | 24.53449 | 36896 ft | 514 kts | 141° |
| 2026-04-26 01:29 | 33.86885 | 24.59126 | 36909 ft | 515 kts | 141° |
| 2026-04-26 01:29 | 33.81545 | 24.64819 | 36908 ft | 516 kts | 141° |
| 2026-04-26 01:30 | 33.76176 | 24.70571 | 36890 ft | 517 kts | 141° |
| 2026-04-26 01:30 | 33.70803 | 24.76324 | 36906 ft | 517 kts | 141° |
| 2026-04-26 01:31 | 33.65417 | 24.82077 | 36903 ft | 518 kts | 141° |
| 2026-04-26 01:31 | 33.60027 | 24.87821 | 36905 ft | 518 kts | 141° |
| 2026-04-26 01:32 | 33.54669 | 24.93522 | 36898 ft | 518 kts | 141° |
| 2026-04-26 01:32 | 33.49272 | 24.99252 | 36896 ft | 519 kts | 141° |
| 2026-04-26 01:33 | 33.43858 | 25.04992 | 36894 ft | 520 kts | 142° |
| 2026-04-26 01:33 | 33.38431 | 25.10735 | 36905 ft | 520 kts | 142° |
| 2026-04-26 01:34 | 33.33004 | 25.16468 | 36900 ft | 520 kts | 142° |
| 2026-04-26 01:34 | 33.27601 | 25.22166 | 36901 ft | 521 kts | 142° |
| 2026-04-26 01:35 | 33.22169 | 25.27886 | 36902 ft | 521 kts | 142° |
| 2026-04-26 01:35 | 33.16725 | 25.33607 | 36903 ft | 521 kts | 142° |
| 2026-04-26 01:36 | 33.11281 | 25.39321 | 36902 ft | 521 kts | 142° |
| 2026-04-26 01:37 | 33.03138 | 25.47844 | 36897 ft | 521 kts | 142° |
| 2026-04-26 01:37 | 32.97672 | 25.53555 | 36895 ft | 521 kts | 143° |
| 2026-04-26 01:38 | 32.92211 | 25.59250 | 36902 ft | 522 kts | 143° |
| 2026-04-26 01:38 | 32.86744 | 25.64942 | 36894 ft | 523 kts | 143° |
| 2026-04-26 01:39 | 32.81250 | 25.70653 | 36907 ft | 523 kts | 144° |
| 2026-04-26 01:39 | 32.75800 | 25.76307 | 36911 ft | 524 kts | 144° |
| 2026-04-26 01:40 | 32.70285 | 25.82019 | 36887 ft | 525 kts | 144° |
| 2026-04-26 01:40 | 32.64771 | 25.87722 | 36902 ft | 526 kts | 144° |
| 2026-04-26 01:41 | 32.59241 | 25.93430 | 36907 ft | 527 kts | 144° |
| 2026-04-26 01:41 | 32.53703 | 25.99137 | 36903 ft | 528 kts | 144° |
| 2026-04-26 01:42 | 32.48177 | 26.04823 | 36912 ft | 529 kts | 144° |
| 2026-04-26 01:42 | 32.42616 | 26.10535 | 36910 ft | 529 kts | 144° |
| 2026-04-26 01:43 | 32.37043 | 26.16249 | 36895 ft | 529 kts | 145° |
| 2026-04-26 01:43 | 32.31470 | 26.21954 | 36912 ft | 530 kts | 145° |
| 2026-04-26 01:44 | 32.25899 | 26.27648 | 36910 ft | 530 kts | 145° |
| 2026-04-26 01:44 | 32.20320 | 26.33339 | 36919 ft | 529 kts | 145° |
| 2026-04-26 01:45 | 32.14737 | 26.39025 | 36922 ft | 529 kts | 145° |
| 2026-04-26 01:45 | 32.09159 | 26.44696 | 36926 ft | 529 kts | 145° |
| 2026-04-26 01:46 | 32.03618 | 26.50321 | 36914 ft | 528 kts | 145° |
| 2026-04-26 01:46 | 31.98040 | 26.55973 | 36932 ft | 528 kts | 145° |
| 2026-04-26 01:47 | 31.92466 | 26.61613 | 36935 ft | 528 kts | 146° |
| 2026-04-26 01:47 | 31.86893 | 26.67242 | 36942 ft | 527 kts | 146° |
| 2026-04-26 01:48 | 31.81357 | 26.72824 | 36940 ft | 527 kts | 146° |
| 2026-04-26 01:48 | 31.75789 | 26.78429 | 36943 ft | 526 kts | 146° |
| 2026-04-26 01:49 | 31.70234 | 26.84010 | 36939 ft | 525 kts | 146° |
| 2026-04-26 01:49 | 31.64662 | 26.89606 | 36938 ft | 525 kts | 147° |
| 2026-04-26 01:50 | 31.59107 | 26.95169 | 36955 ft | 525 kts | 147° |
| 2026-04-26 01:50 | 31.53546 | 27.00729 | 36953 ft | 525 kts | 147° |
| 2026-04-26 01:51 | 31.47988 | 27.06279 | 36966 ft | 525 kts | 147° |
| 2026-04-26 01:51 | 31.42458 | 27.11793 | 36925 ft | 525 kts | 148° |
| 2026-04-26 01:52 | 31.36885 | 27.17342 | 36950 ft | 525 kts | 148° |
| 2026-04-26 01:52 | 31.31307 | 27.22883 | 36975 ft | 526 kts | 148° |
| 2026-04-26 01:53 | 31.25622 | 27.28231 | 36953 ft | 524 kts | 150° |
| 2026-04-26 01:53 | 31.19860 | 27.33471 | 36972 ft | 525 kts | 150° |
| 2026-04-26 01:54 | 31.14135 | 27.38698 | 36970 ft | 526 kts | 150° |
| 2026-04-26 01:54 | 31.08383 | 27.43986 | 36954 ft | 526 kts | 151° |
| 2026-04-26 01:55 | 31.02634 | 27.49278 | 36957 ft | 526 kts | 151° |
| 2026-04-26 01:55 | 30.96880 | 27.54565 | 36979 ft | 527 kts | 151° |
| 2026-04-26 01:56 | 30.91114 | 27.59852 | 36979 ft | 527 kts | 151° |
| 2026-04-26 01:56 | 30.85339 | 27.65137 | 36981 ft | 527 kts | 151° |
| 2026-04-26 01:57 | 30.79567 | 27.70412 | 36941 ft | 528 kts | 152° |
| 2026-04-26 01:57 | 30.73832 | 27.75645 | 36983 ft | 527 kts | 152° |
| 2026-04-26 01:58 | 30.68054 | 27.80908 | 36985 ft | 528 kts | 152° |
| 2026-04-26 01:58 | 30.62269 | 27.86169 | 36983 ft | 528 kts | 152° |
| 2026-04-26 01:59 | 30.56476 | 27.91430 | 36984 ft | 529 kts | 152° |
| 2026-04-26 01:59 | 30.50677 | 27.96687 | 36984 ft | 529 kts | 152° |
| 2026-04-26 02:00 | 30.44878 | 28.01938 | 36959 ft | 529 kts | 152° |
| 2026-04-26 02:00 | 30.39105 | 28.07155 | 36962 ft | 530 kts | 152° |
| 2026-04-26 02:01 | 30.33283 | 28.12409 | 36987 ft | 531 kts | 152° |
| 2026-04-26 02:01 | 30.27454 | 28.17661 | 36983 ft | 532 kts | 152° |
| 2026-04-26 02:02 | 30.21608 | 28.22922 | 36984 ft | 532 kts | 152° |
| 2026-04-26 02:02 | 30.15763 | 28.28173 | 36982 ft | 532 kts | 152° |
| 2026-04-26 02:03 | 30.09912 | 28.33421 | 36983 ft | 532 kts | 152° |
| 2026-04-26 02:03 | 30.04066 | 28.38658 | 36969 ft | 532 kts | 153° |
| 2026-04-26 02:04 | 29.98222 | 28.43884 | 36972 ft | 531 kts | 153° |
| 2026-04-26 02:04 | 29.92374 | 28.49106 | 36978 ft | 531 kts | 153° |
| 2026-04-26 02:05 | 29.86529 | 28.54316 | 36986 ft | 530 kts | 153° |
| 2026-04-26 02:05 | 29.80734 | 28.59475 | 36976 ft | 530 kts | 153° |
| 2026-04-26 02:06 | 29.74894 | 28.64666 | 36979 ft | 531 kts | 153° |
| 2026-04-26 02:06 | 29.69040 | 28.69862 | 36986 ft | 532 kts | 153° |
| 2026-04-26 02:07 | 29.63442 | 28.75592 | 36989 ft | 548 kts | 143° |
| 2026-04-26 02:07 | 29.58584 | 28.82517 | 36992 ft | 560 kts | 136° |
| 2026-04-26 02:08 | 29.53907 | 28.89663 | 36968 ft | 559 kts | 136° |
| 2026-04-26 02:08 | 29.49161 | 28.96729 | 36921 ft | 558 kts | 137° |
| 2026-04-26 02:09 | 29.44572 | 29.03845 | 36974 ft | 566 kts | 127° |
| 2026-04-26 02:09 | 29.42883 | 29.07983 | 36976 ft | 579 kts | 115° |
| 2026-04-26 02:09 | 29.41800 | 29.12450 | 36984 ft | 587 kts | 104° |
| 2026-04-26 02:09 | 29.41396 | 29.17127 | 36968 ft | 590 kts | 92° |
| 2026-04-26 02:10 | 29.41392 | 29.21845 | 36986 ft | 591 kts | 91° |
| 2026-04-26 02:10 | 29.41465 | 29.31268 | 36970 ft | 591 kts | 91° |
| 2026-04-26 02:11 | 29.41436 | 29.40703 | 36975 ft | 592 kts | 92° |
| 2026-04-26 02:11 | 29.41312 | 29.50131 | 36973 ft | 591 kts | 93° |
| 2026-04-26 02:12 | 29.41164 | 29.59563 | 36957 ft | 590 kts | 93° |
| 2026-04-26 02:12 | 29.41021 | 29.68979 | 36970 ft | 589 kts | 93° |
| 2026-04-26 02:13 | 29.40881 | 29.78319 | 36970 ft | 589 kts | 93° |
| 2026-04-26 02:13 | 29.40735 | 29.87708 | 36956 ft | 589 kts | 93° |
| 2026-04-26 02:14 | 29.40580 | 29.97087 | 36959 ft | 588 kts | 93° |
| 2026-04-26 02:14 | 29.40418 | 30.06474 | 36956 ft | 588 kts | 93° |
| 2026-04-26 02:15 | 29.40277 | 30.14338 | 36930 ft | 588 kts | 93° |
| 2026-04-26 02:15 | 29.40105 | 30.23653 | 36955 ft | 588 kts | 94° |
| 2026-04-26 02:16 | 29.39786 | 30.33019 | 36937 ft | 583 kts | 103° |
| 2026-04-26 02:16 | 29.38816 | 30.37481 | 36954 ft | 572 kts | 117° |
| 2026-04-26 02:16 | 29.37178 | 30.41578 | 36931 ft | 563 kts | 128° |
| 2026-04-26 02:16 | 29.35019 | 30.45279 | 36951 ft | 552 kts | 140° |
| 2026-04-26 02:17 | 29.32408 | 30.48417 | 36961 ft | 542 kts | 146° |
| 2026-04-26 02:17 | 29.27011 | 30.54571 | 36951 ft | 551 kts | 144° |
| 2026-04-26 02:18 | 29.21628 | 30.60877 | 36941 ft | 551 kts | 144° |
| 2026-04-26 02:18 | 29.16362 | 30.67158 | 36943 ft | 544 kts | 144° |
| 2026-04-26 02:19 | 29.11116 | 30.73394 | 36954 ft | 544 kts | 144° |
| 2026-04-26 02:19 | 29.05894 | 30.79573 | 36949 ft | 544 kts | 144° |
| 2026-04-26 02:20 | 29.00640 | 30.85778 | 36941 ft | 543 kts | 144° |
| 2026-04-26 02:20 | 28.95382 | 30.91981 | 36951 ft | 543 kts | 144° |
| 2026-04-26 02:21 | 28.90114 | 30.98186 | 36925 ft | 543 kts | 144° |
| 2026-04-26 02:21 | 28.84857 | 31.04372 | 36945 ft | 543 kts | 144° |
| 2026-04-26 02:22 | 28.79591 | 31.10556 | 36951 ft | 543 kts | 144° |
| 2026-04-26 02:22 | 28.74321 | 31.16737 | 36952 ft | 543 kts | 144° |
| 2026-04-26 02:23 | 28.69090 | 31.22871 | 36957 ft | 544 kts | 143° |
| 2026-04-26 02:23 | 28.63969 | 31.29237 | 36950 ft | 545 kts | 141° |
| 2026-04-26 02:24 | 28.58932 | 31.35692 | 36951 ft | 545 kts | 141° |
| 2026-04-26 02:24 | 28.53879 | 31.42111 | 36952 ft | 544 kts | 142° |
| 2026-04-26 02:25 | 28.48800 | 31.48495 | 36964 ft | 544 kts | 142° |
| 2026-04-26 02:25 | 28.43708 | 31.54870 | 36947 ft | 544 kts | 142° |
| 2026-04-26 02:26 | 28.38624 | 31.61232 | 36957 ft | 544 kts | 142° |
| 2026-04-26 02:26 | 28.33571 | 31.67549 | 36954 ft | 544 kts | 142° |
| 2026-04-26 02:27 | 28.28488 | 31.73896 | 36951 ft | 543 kts | 142° |
| 2026-04-26 02:27 | 28.23400 | 31.80238 | 36950 ft | 542 kts | 142° |
| 2026-04-26 02:28 | 28.18314 | 31.86567 | 36963 ft | 543 kts | 142° |
| 2026-04-26 02:28 | 28.13227 | 31.92888 | 36964 ft | 543 kts | 142° |
| 2026-04-26 02:29 | 28.08154 | 31.99185 | 36968 ft | 544 kts | 142° |
| 2026-04-26 02:29 | 28.03212 | 32.05820 | 36966 ft | 554 kts | 135° |
| 2026-04-26 02:30 | 27.99217 | 32.13335 | 36966 ft | 565 kts | 126° |
| 2026-04-26 02:30 | 27.95526 | 32.21204 | 36969 ft | 565 kts | 126° |
| 2026-04-26 02:31 | 27.91812 | 32.29040 | 36962 ft | 564 kts | 127° |
| 2026-04-26 02:31 | 27.88060 | 32.36823 | 36955 ft | 563 kts | 127° |
| 2026-04-26 02:32 | 27.84314 | 32.44538 | 36945 ft | 563 kts | 127° |
| 2026-04-26 02:32 | 27.80539 | 32.52303 | 36949 ft | 563 kts | 127° |
| 2026-04-26 02:33 | 27.76775 | 32.60044 | 36943 ft | 563 kts | 127° |
| 2026-04-26 02:33 | 27.72994 | 32.67809 | 36935 ft | 563 kts | 127° |
| 2026-04-26 02:34 | 27.69209 | 32.75566 | 36939 ft | 564 kts | 127° |
| 2026-04-26 02:34 | 27.65442 | 32.83271 | 36938 ft | 565 kts | 127° |
| 2026-04-26 02:35 | 27.61640 | 32.91035 | 36903 ft | 566 kts | 127° |
| 2026-04-26 02:35 | 27.57834 | 32.98792 | 36918 ft | 566 kts | 127° |
| 2026-04-26 02:36 | 27.54018 | 33.06556 | 36907 ft | 566 kts | 127° |
| 2026-04-26 02:36 | 27.50198 | 33.14317 | 36917 ft | 566 kts | 127° |
| 2026-04-26 02:37 | 27.46373 | 33.22071 | 36911 ft | 566 kts | 127° |
| 2026-04-26 02:37 | 27.42550 | 33.29808 | 36905 ft | 566 kts | 127° |
| 2026-04-26 02:38 | 27.38740 | 33.37506 | 36898 ft | 566 kts | 127° |
| 2026-04-26 02:38 | 27.34908 | 33.45235 | 36858 ft | 565 kts | 127° |
| 2026-04-26 02:39 | 27.31074 | 33.52957 | 36880 ft | 565 kts | 127° |
| 2026-04-26 02:39 | 27.27233 | 33.60680 | 36898 ft | 565 kts | 127° |
| 2026-04-26 02:40 | 27.23397 | 33.68384 | 36891 ft | 565 kts | 127° |
| 2026-04-26 02:40 | 27.19552 | 33.76092 | 36891 ft | 565 kts | 128° |
| 2026-04-26 02:41 | 27.16081 | 33.84032 | 36887 ft | 575 kts | 119° |
| 2026-04-26 02:41 | 27.13172 | 33.92408 | 36887 ft | 576 kts | 118° |
| 2026-04-26 02:42 | 27.10261 | 34.00774 | 36874 ft | 574 kts | 118° |
| 2026-04-26 02:42 | 27.07300 | 34.09073 | 36876 ft | 572 kts | 119° |
| 2026-04-26 02:43 | 27.02840 | 34.21491 | 36880 ft | 571 kts | 119° |
| 2026-04-26 02:43 | 26.99876 | 34.29757 | 36875 ft | 570 kts | 119° |
| 2026-04-26 02:44 | 26.96925 | 34.37991 | 36881 ft | 570 kts | 119° |
| 2026-04-26 02:44 | 26.93966 | 34.46231 | 36882 ft | 569 kts | 119° |
| 2026-04-26 02:45 | 26.91019 | 34.54416 | 36879 ft | 569 kts | 119° |
| 2026-04-26 02:45 | 26.88056 | 34.62629 | 36886 ft | 569 kts | 119° |
| 2026-04-26 02:46 | 26.85084 | 34.70845 | 36887 ft | 569 kts | 119° |
| 2026-04-26 02:46 | 26.82106 | 34.79065 | 36881 ft | 570 kts | 119° |
| 2026-04-26 02:47 | 26.79122 | 34.87287 | 36893 ft | 570 kts | 119° |
| 2026-04-26 02:47 | 26.76126 | 34.95522 | 36883 ft | 571 kts | 119° |
| 2026-04-26 02:48 | 26.73111 | 35.03756 | 36880 ft | 571 kts | 119° |
| 2026-04-26 02:48 | 26.70091 | 35.11981 | 36889 ft | 571 kts | 119° |
| 2026-04-26 02:49 | 26.67070 | 35.20201 | 36890 ft | 571 kts | 119° |
| 2026-04-26 02:49 | 26.64047 | 35.28411 | 36879 ft | 571 kts | 119° |
| 2026-04-26 02:50 | 26.61017 | 35.36624 | 36887 ft | 571 kts | 119° |
| 2026-04-26 02:50 | 26.57988 | 35.44821 | 36892 ft | 571 kts | 119° |
| 2026-04-26 02:51 | 26.54935 | 35.52999 | 36879 ft | 570 kts | 120° |
| 2026-04-26 02:51 | 26.51837 | 35.61082 | 36897 ft | 569 kts | 120° |
| 2026-04-26 02:52 | 26.48703 | 35.69214 | 36899 ft | 569 kts | 120° |
| 2026-04-26 02:52 | 26.45577 | 35.77347 | 36856 ft | 569 kts | 120° |
| 2026-04-26 02:53 | 26.42462 | 35.85455 | 36888 ft | 568 kts | 120° |
| 2026-04-26 02:53 | 26.39347 | 35.93548 | 36892 ft | 568 kts | 120° |
| 2026-04-26 02:54 | 26.36221 | 36.01645 | 36891 ft | 568 kts | 120° |
| 2026-04-26 02:54 | 26.33110 | 36.09690 | 36892 ft | 568 kts | 120° |
| 2026-04-26 02:55 | 26.29976 | 36.17777 | 36889 ft | 568 kts | 120° |
| 2026-04-26 02:55 | 26.26837 | 36.25864 | 36866 ft | 568 kts | 120° |
| 2026-04-26 02:56 | 26.23689 | 36.33958 | 36876 ft | 568 kts | 120° |
| 2026-04-26 02:56 | 26.20556 | 36.42046 | 36891 ft | 570 kts | 117° |
| 2026-04-26 02:57 | 26.18668 | 36.50638 | 36878 ft | 583 kts | 99° |
| 2026-04-26 02:57 | 26.18749 | 36.59683 | 36902 ft | 587 kts | 84° |
| 2026-04-26 02:58 | 26.19782 | 36.68688 | 36928 ft | 587 kts | 83° |
| 2026-04-26 02:58 | 26.20801 | 36.77724 | 36903 ft | 587 kts | 84° |
| 2026-04-26 02:59 | 26.21721 | 36.86761 | 36918 ft | 587 kts | 84° |
| 2026-04-26 02:59 | 26.22599 | 36.95813 | 36916 ft | 587 kts | 84° |
| 2026-04-26 03:00 | 26.23469 | 37.04795 | 36915 ft | 586 kts | 84° |
| 2026-04-26 03:00 | 26.24345 | 37.13813 | 36932 ft | 585 kts | 84° |
| 2026-04-26 03:01 | 26.25218 | 37.22823 | 36936 ft | 585 kts | 84° |
| 2026-04-26 03:01 | 26.25939 | 37.30314 | 36979 ft | 585 kts | 84° |
| 2026-04-26 03:02 | 26.26801 | 37.39340 | 36967 ft | 585 kts | 84° |
| 2026-04-26 03:02 | 26.27657 | 37.48362 | 36954 ft | 585 kts | 84° |
| 2026-04-26 03:03 | 26.28505 | 37.57368 | 36982 ft | 584 kts | 84° |
| 2026-04-26 03:03 | 26.29348 | 37.66371 | 36978 ft | 583 kts | 84° |
| 2026-04-26 03:04 | 26.30186 | 37.75376 | 36976 ft | 583 kts | 84° |
| 2026-04-26 03:04 | 26.31014 | 37.84296 | 36979 ft | 583 kts | 84° |
| 2026-04-26 03:05 | 26.31857 | 37.93336 | 37001 ft | 583 kts | 84° |
| 2026-04-26 03:05 | 26.32683 | 38.02277 | 36987 ft | 583 kts | 84° |
| 2026-04-26 03:06 | 26.33509 | 38.11288 | 36982 ft | 584 kts | 84° |
| 2026-04-26 03:06 | 26.34329 | 38.20291 | 36991 ft | 583 kts | 85° |
| 2026-04-26 03:07 | 26.35139 | 38.29290 | 37016 ft | 583 kts | 85° |
| 2026-04-26 03:07 | 26.35928 | 38.38295 | 37006 ft | 584 kts | 85° |
| 2026-04-26 03:08 | 26.36706 | 38.47261 | 37006 ft | 584 kts | 85° |
| 2026-04-26 03:08 | 26.37486 | 38.56289 | 37015 ft | 585 kts | 85° |
| 2026-04-26 03:09 | 26.38262 | 38.65311 | 37004 ft | 585 kts | 85° |
| 2026-04-26 03:09 | 26.39032 | 38.74342 | 37013 ft | 584 kts | 85° |
| 2026-04-26 03:10 | 26.39796 | 38.83362 | 37033 ft | 584 kts | 85° |
| 2026-04-26 03:10 | 26.40554 | 38.92387 | 37022 ft | 584 kts | 85° |
| 2026-04-26 03:11 | 26.41306 | 39.01403 | 37035 ft | 583 kts | 85° |
| 2026-04-26 03:11 | 26.42052 | 39.10420 | 37054 ft | 584 kts | 85° |
| 2026-04-26 03:12 | 26.42792 | 39.19435 | 37032 ft | 583 kts | 85° |
| 2026-04-26 03:12 | 26.43522 | 39.28453 | 37031 ft | 583 kts | 86° |
| 2026-04-26 03:13 | 26.44036 | 39.37485 | 37030 ft | 583 kts | 88° |
| 2026-04-26 03:13 | 26.44424 | 39.46519 | 37039 ft | 583 kts | 88° |
| 2026-04-26 03:14 | 26.44829 | 39.55483 | 37046 ft | 582 kts | 88° |
| 2026-04-26 03:14 | 26.45267 | 39.64509 | 37042 ft | 582 kts | 88° |
| 2026-04-26 03:15 | 26.45709 | 39.73519 | 37065 ft | 581 kts | 88° |
| 2026-04-26 03:15 | 26.46143 | 39.82547 | 37037 ft | 581 kts | 88° |
| 2026-04-26 03:16 | 26.46566 | 39.91552 | 37052 ft | 581 kts | 88° |
| 2026-04-26 03:16 | 26.46983 | 40.00555 | 37059 ft | 580 kts | 88° |
| 2026-04-26 03:17 | 26.47394 | 40.09550 | 37051 ft | 580 kts | 88° |
| 2026-04-26 03:17 | 26.47799 | 40.18530 | 37047 ft | 579 kts | 88° |
| 2026-04-26 03:18 | 26.48196 | 40.27453 | 37036 ft | 579 kts | 88° |
| 2026-04-26 03:18 | 26.48590 | 40.36428 | 37068 ft | 578 kts | 88° |
| 2026-04-26 03:19 | 26.48978 | 40.45408 | 37052 ft | 579 kts | 88° |
| 2026-04-26 03:19 | 26.49361 | 40.54388 | 37059 ft | 578 kts | 88° |
| 2026-04-26 03:20 | 26.49738 | 40.63351 | 37065 ft | 578 kts | 88° |
| 2026-04-26 03:20 | 26.50107 | 40.72254 | 37062 ft | 578 kts | 88° |
| 2026-04-26 03:21 | 26.50474 | 40.81216 | 37075 ft | 578 kts | 88° |
| 2026-04-26 03:21 | 26.50836 | 40.90203 | 37069 ft | 579 kts | 88° |
| 2026-04-26 03:22 | 26.51192 | 40.99174 | 37067 ft | 578 kts | 88° |
| 2026-04-26 03:22 | 26.51266 | 41.08143 | 37073 ft | 576 kts | 96° |
| 2026-04-26 03:23 | 26.50621 | 41.17059 | 37067 ft | 575 kts | 97° |
| 2026-04-26 03:23 | 26.49919 | 41.25946 | 37074 ft | 575 kts | 97° |
| 2026-04-26 03:24 | 26.49256 | 41.34845 | 37045 ft | 575 kts | 97° |
| 2026-04-26 03:24 | 26.48623 | 41.43726 | 37078 ft | 574 kts | 96° |
| 2026-04-26 03:25 | 26.47994 | 41.52553 | 37075 ft | 573 kts | 96° |
| 2026-04-26 03:25 | 26.47351 | 41.61418 | 37064 ft | 573 kts | 96° |
| 2026-04-26 03:26 | 26.46701 | 41.70274 | 37084 ft | 573 kts | 97° |
| 2026-04-26 03:26 | 26.46043 | 41.79147 | 37057 ft | 573 kts | 97° |
| 2026-04-26 03:27 | 26.45381 | 41.88000 | 37074 ft | 572 kts | 97° |
| 2026-04-26 03:27 | 26.44715 | 41.96850 | 37074 ft | 572 kts | 97° |
| 2026-04-26 03:28 | 26.44043 | 42.05702 | 37068 ft | 572 kts | 97° |
| 2026-04-26 03:28 | 26.43366 | 42.14540 | 37078 ft | 572 kts | 97° |
| 2026-04-26 03:29 | 26.42688 | 42.23322 | 37072 ft | 572 kts | 97° |
| 2026-04-26 03:29 | 26.42001 | 42.32153 | 37075 ft | 571 kts | 97° |
| 2026-04-26 03:30 | 26.41309 | 42.40987 | 37083 ft | 571 kts | 96° |
| 2026-04-26 03:30 | 26.40610 | 42.49820 | 37093 ft | 572 kts | 97° |
| 2026-04-26 03:31 | 26.39906 | 42.58665 | 37085 ft | 572 kts | 97° |
| 2026-04-26 03:31 | 26.39195 | 42.67515 | 37074 ft | 573 kts | 97° |
| 2026-04-26 03:32 | 26.38483 | 42.76318 | 37076 ft | 573 kts | 97° |
| 2026-04-26 03:32 | 26.37756 | 42.85230 | 37070 ft | 573 kts | 97° |
| 2026-04-26 03:33 | 26.37034 | 42.94023 | 37076 ft | 573 kts | 97° |
| 2026-04-26 03:33 | 26.36302 | 43.02879 | 37077 ft | 573 kts | 97° |
| 2026-04-26 03:34 | 26.35559 | 43.11730 | 37074 ft | 573 kts | 97° |
| 2026-04-26 03:34 | 26.34805 | 43.20593 | 37080 ft | 573 kts | 97° |
| 2026-04-26 03:35 | 26.34053 | 43.29378 | 37087 ft | 574 kts | 97° |
| 2026-04-26 03:35 | 26.33290 | 43.38243 | 37078 ft | 574 kts | 97° |
| 2026-04-26 03:36 | 26.32520 | 43.47120 | 37048 ft | 575 kts | 97° |
| 2026-04-26 03:36 | 26.31745 | 43.55990 | 37022 ft | 575 kts | 97° |
| 2026-04-26 03:37 | 26.30963 | 43.64887 | 36985 ft | 575 kts | 97° |
| 2026-04-26 03:37 | 26.30178 | 43.73759 | 36991 ft | 575 kts | 97° |
| 2026-04-26 03:38 | 26.29726 | 43.82589 | 36996 ft | 575 kts | 90° |
| 2026-04-26 03:38 | 26.29851 | 43.91501 | 37001 ft | 575 kts | 89° |
| 2026-04-26 03:39 | 26.29989 | 44.00406 | 37033 ft | 574 kts | 89° |
| 2026-04-26 03:39 | 26.30067 | 44.09291 | 37049 ft | 574 kts | 90° |
| 2026-04-26 03:40 | 26.30121 | 44.18195 | 37052 ft | 574 kts | 90° |
| 2026-04-26 03:40 | 26.30172 | 44.27084 | 37040 ft | 573 kts | 90° |
| 2026-04-26 03:41 | 26.30223 | 44.35965 | 37045 ft | 572 kts | 90° |
| 2026-04-26 03:41 | 26.30286 | 44.44839 | 37043 ft | 572 kts | 87° |
| 2026-04-26 03:42 | 26.31262 | 44.53533 | 37084 ft | 570 kts | 76° |
| 2026-04-26 03:42 | 26.33451 | 44.61991 | 37026 ft | 566 kts | 66° |
| 2026-04-26 03:43 | 26.36271 | 44.70177 | 37044 ft | 565 kts | 65° |
| 2026-04-26 03:43 | 26.39079 | 44.78374 | 37045 ft | 566 kts | 66° |
| 2026-04-26 03:44 | 26.41831 | 44.86622 | 37056 ft | 567 kts | 66° |
| 2026-04-26 03:44 | 26.44569 | 44.94895 | 37055 ft | 568 kts | 66° |
| 2026-04-26 03:45 | 26.47297 | 45.03137 | 37049 ft | 569 kts | 66° |
| 2026-04-26 03:45 | 26.50041 | 45.11432 | 37053 ft | 569 kts | 66° |
| 2026-04-26 03:46 | 26.52780 | 45.19722 | 37061 ft | 569 kts | 66° |
| 2026-04-26 03:47 | 26.56889 | 45.32192 | 37041 ft | 570 kts | 66° |
| 2026-04-26 03:47 | 26.59623 | 45.40513 | 37043 ft | 570 kts | 66° |
| 2026-04-26 03:48 | 26.62348 | 45.48830 | 37043 ft | 570 kts | 66° |
| 2026-04-26 03:48 | 26.65058 | 45.57116 | 37037 ft | 570 kts | 66° |
| 2026-04-26 03:49 | 26.67774 | 45.65443 | 37038 ft | 570 kts | 66° |
| 2026-04-26 03:49 | 26.70488 | 45.73777 | 37032 ft | 570 kts | 66° |
| 2026-04-26 03:50 | 26.72737 | 45.80702 | 37036 ft | 570 kts | 66° |
| 2026-04-26 03:50 | 26.75883 | 45.90409 | 37027 ft | 571 kts | 66° |
| 2026-04-26 03:51 | 26.78582 | 45.98758 | 37014 ft | 571 kts | 66° |
| 2026-04-26 03:51 | 26.80821 | 46.05698 | 37021 ft | 570 kts | 66° |
| 2026-04-26 03:52 | 26.83511 | 46.14053 | 37014 ft | 570 kts | 66° |
| 2026-04-26 03:52 | 26.86631 | 46.23769 | 37006 ft | 571 kts | 66° |
| 2026-04-26 03:53 | 26.88876 | 46.30776 | 37009 ft | 571 kts | 66° |
| 2026-04-26 03:53 | 26.91300 | 46.39185 | 36997 ft | 573 kts | 73° |
| 2026-04-26 03:54 | 26.92571 | 46.48018 | 37004 ft | 575 kts | 83° |
| 2026-04-26 03:54 | 26.93318 | 46.56937 | 36996 ft | 575 kts | 84° |
| 2026-04-26 03:55 | 26.94084 | 46.65856 | 36991 ft | 574 kts | 83° |
| 2026-04-26 03:55 | 26.94891 | 46.74691 | 36995 ft | 574 kts | 83° |
| 2026-04-26 03:56 | 26.95718 | 46.83582 | 36986 ft | 573 kts | 83° |
| 2026-04-26 03:56 | 26.96535 | 46.92472 | 36993 ft | 573 kts | 83° |
| 2026-04-26 03:57 | 26.97341 | 47.01355 | 37000 ft | 573 kts | 83° |
| 2026-04-26 03:57 | 26.98135 | 47.10187 | 36990 ft | 573 kts | 83° |
| 2026-04-26 03:58 | 26.98929 | 47.19072 | 37002 ft | 573 kts | 83° |
| 2026-04-26 03:58 | 26.99720 | 47.27983 | 36992 ft | 574 kts | 83° |
| 2026-04-26 03:59 | 27.00503 | 47.36870 | 36986 ft | 573 kts | 83° |
| 2026-04-26 03:59 | 27.01281 | 47.45777 | 36992 ft | 573 kts | 83° |
| 2026-04-26 04:00 | 27.02049 | 47.54620 | 36997 ft | 574 kts | 83° |
| 2026-04-26 04:00 | 27.02816 | 47.63521 | 37022 ft | 574 kts | 83° |
| 2026-04-26 04:01 | 27.03580 | 47.72452 | 37009 ft | 575 kts | 83° |
| 2026-04-26 04:01 | 27.04338 | 47.81377 | 36999 ft | 576 kts | 83° |
| 2026-04-26 04:02 | 27.05091 | 47.90315 | 36999 ft | 576 kts | 83° |
| 2026-04-26 04:02 | 27.05816 | 47.99216 | 36997 ft | 576 kts | 84° |
| 2026-04-26 04:03 | 27.06272 | 48.08189 | 36971 ft | 576 kts | 86° |
| 2026-04-26 04:03 | 27.06623 | 48.17158 | 36986 ft | 575 kts | 86° |
| 2026-04-26 04:04 | 27.07012 | 48.26113 | 36989 ft | 574 kts | 86° |
| 2026-04-26 04:04 | 27.07427 | 48.34996 | 36987 ft | 573 kts | 86° |
| 2026-04-26 04:05 | 27.07844 | 48.43928 | 37005 ft | 573 kts | 86° |
| 2026-04-26 04:05 | 27.08249 | 48.52845 | 36988 ft | 573 kts | 86° |
| 2026-04-26 04:06 | 27.08647 | 48.61777 | 36987 ft | 572 kts | 86° |
| 2026-04-26 04:06 | 27.09035 | 48.70630 | 36988 ft | 572 kts | 86° |
| 2026-04-26 04:07 | 27.09422 | 48.79551 | 36955 ft | 572 kts | 86° |
| 2026-04-26 04:07 | 27.09780 | 48.88463 | 36974 ft | 572 kts | 88° |
| 2026-04-26 04:08 | 27.09498 | 48.97376 | 36978 ft | 572 kts | 93° |
| 2026-04-26 04:08 | 27.09021 | 49.06286 | 36977 ft | 572 kts | 93° |
| 2026-04-26 04:09 | 27.08589 | 49.15129 | 36977 ft | 572 kts | 92° |
| 2026-04-26 04:09 | 27.08185 | 49.24046 | 36977 ft | 572 kts | 92° |
| 2026-04-26 04:10 | 27.07773 | 49.32956 | 36985 ft | 572 kts | 92° |
| 2026-04-26 04:10 | 27.07349 | 49.41873 | 36977 ft | 572 kts | 92° |
| 2026-04-26 04:11 | 27.06922 | 49.50732 | 36973 ft | 572 kts | 92° |
| 2026-04-26 04:11 | 27.06487 | 49.59645 | 36976 ft | 573 kts | 92° |
| 2026-04-26 04:12 | 27.06046 | 49.68570 | 36980 ft | 573 kts | 92° |
| 2026-04-26 04:12 | 27.05600 | 49.77485 | 36991 ft | 573 kts | 92° |
| 2026-04-26 04:13 | 27.05152 | 49.86339 | 36994 ft | 573 kts | 92° |
| 2026-04-26 04:13 | 27.04695 | 49.95263 | 36994 ft | 573 kts | 92° |
| 2026-04-26 04:14 | 27.04592 | 50.04180 | 36990 ft | 571 kts | 88° |
| 2026-04-26 04:14 | 27.04716 | 50.13081 | 37000 ft | 571 kts | 88° |
| 2026-04-26 04:15 | 27.04784 | 50.21927 | 37012 ft | 571 kts | 88° |